Observation data for Fort Chadbourne on 11/10/2019      Previous  Date       Current Mesonet Observations  Soil Data  Daily Summary Page  Observations in Plain Language
KCH1 100600Z 15003KT 08/08 A3013 RMK A01 T00810079  RH  099%=      5-min Rain = 0
KCH1 100601Z 15003KT 08/08 A3013 RMK A01 T00800079  RH  099%=      5-min Rain = 0
KCH1 100602Z 16003KT 08/08 A3013 RMK A01 T00790077  RH  099%=      5-min Rain = 0
KCH1 100603Z 16003KT 08/08 A3012 RMK A01 T00780076  RH  099%=      5-min Rain = 0
KCH1 100604Z 16003KT 08/08 A3012 RMK A01 T00790078  RH  099%=      5-min Rain = 0
KCH1 100605Z 16004KT 08/08 A3012 RMK A01 T00820082  RH  100%=      5-min Rain = 0
KCH1 100606Z 16004KT 08/08 A3012 RMK A01 T00830082  RH  100%=      5-min Rain = 0
KCH1 100607Z 17003KT 08/08 A3012 RMK A01 T00820081  RH  100%=      5-min Rain = 0
KCH1 100608Z 16003KT 08/08 A3012 RMK A01 T00820082  RH  100%=      5-min Rain = 0
KCH1 100609Z 16003KT 08/08 A3012 RMK A01 T00820082  RH  100%=      5-min Rain = 0
KCH1 100610Z 17002KT 08/08 A3012 RMK A01 T00810080  RH  099%=      5-min Rain = 0
KCH1 100611Z 16002KT 08/08 A3012 RMK A01 T00810080  RH  099%=      5-min Rain = 0
KCH1 100612Z 13001KT 08/08 A3012 RMK A01 T00820081  RH  100%=      5-min Rain = 0
KCH1 100613Z 15002KT 08/08 A3012 RMK A01 T00820082  RH  100%=      5-min Rain = 0
KCH1 100614Z 16002KT 08/08 A3012 RMK A01 T00820082  RH  100%=      5-min Rain = 0
KCH1 100615Z 16001KT 08/08 A3012 RMK A01 T00830083  RH  100%=      5-min Rain = 0
KCH1 100616Z 16002KT 08/08 A3012 RMK A01 T00840084  RH  100%=      5-min Rain = 0
KCH1 100617Z 19002KT 09/09 A3012 RMK A01 T00880088  RH  100%=      5-min Rain = 0
KCH1 100618Z 18002KT 09/09 A3012 RMK A01 T00890089  RH  100%=      5-min Rain = 0
KCH1 100619Z 19002KT 09/09 A3012 RMK A01 T00900090  RH  100%=      5-min Rain = 0
KCH1 100620Z 19002KT 09/09 A3012 RMK A01 T00900091  RH  100%=      5-min Rain = 0
KCH1 100621Z 20003KT 09/09 A3012 RMK A01 T00920092  RH  100%=      5-min Rain = 0
KCH1 100622Z 20002KT 09/10 A3012 RMK A01 T00940095  RH  100%=      5-min Rain = 0
KCH1 100623Z 20003KT 10/10 A3012 RMK A01 T00970097  RH  100%=      5-min Rain = 0
KCH1 100624Z 20002KT 10/10 A3012 RMK A01 T00980098  RH  100%=      5-min Rain = 0
KCH1 100625Z 19002KT 10/10 A3012 RMK A01 T00990100  RH  100%=      5-min Rain = 0
KCH1 100626Z 18001KT 10/10 A3012 RMK A01 T01000100  RH  100%=      5-min Rain = 0
KCH1 100627Z 16002KT 10/10 A3012 RMK A01 T01010101  RH  100%=      5-min Rain = 0
KCH1 100628Z 15001KT 10/10 A3012 RMK A01 T01020102  RH  100%=      5-min Rain = 0
KCH1 100629Z 14001KT 10/10 A3012 RMK A01 T01010101  RH  100%=      5-min Rain = 0
KCH1 100630Z 13002KT 10/10 A3012 RMK A01 T00980098  RH  100%=      5-min Rain = 0
KCH1 100631Z 12002KT 10/10 A3012 RMK A01 T00960095  RH  099%=      5-min Rain = 0
KCH1 100632Z 13002KT 09/09 A3012 RMK A01 T00940093  RH  099%=      5-min Rain = 0
KCH1 100633Z 13002KT 09/09 A3012 RMK A01 T00940093  RH  099%=      5-min Rain = 0
KCH1 100634Z 14002KT 09/09 A3012 RMK A01 T00940093  RH  100%=      5-min Rain = 0
KCH1 100635Z 14002KT 10/10 A3012 RMK A01 T00960096  RH  100%=      5-min Rain = 0
KCH1 100636Z 14001KT 10/10 A3012 RMK A01 T00970097  RH  100%=      5-min Rain = 0
KCH1 100637Z 15002KT 10/10 A3012 RMK A01 T00980098  RH  100%=      5-min Rain = 0
KCH1 100638Z 15002KT 10/10 A3012 RMK A01 T00990099  RH  100%=      5-min Rain = 0
KCH1 100639Z 15001KT 10/10 A3012 RMK A01 T00970096  RH  100%=      5-min Rain = 0
KCH1 100640Z 16002KT 10/10 A3012 RMK A01 T00980098  RH  100%=      5-min Rain = 0
KCH1 100641Z 16002KT 10/10 A3012 RMK A01 T01000100  RH  100%=      5-min Rain = 0
KCH1 100642Z 16002KT 10/10 A3012 RMK A01 T01010101  RH  100%=      5-min Rain = 0
KCH1 100643Z 14002KT 10/10 A3012 RMK A01 T01020102  RH  100%=      5-min Rain = 0
KCH1 100644Z 15002KT 10/10 A3012 RMK A01 T01020102  RH  100%=      5-min Rain = 0
KCH1 100645Z 14002KT 10/10 A3012 RMK A01 T01020102  RH  100%=      5-min Rain = 0
KCH1 100646Z 14002KT 10/10 A3012 RMK A01 T01010101  RH  100%=      5-min Rain = 0
KCH1 100647Z 15002KT 10/10 A3012 RMK A01 T01000099  RH  099%=      5-min Rain = 0
KCH1 100648Z 15002KT 10/10 A3012 RMK A01 T01000099  RH  099%=      5-min Rain = 0
KCH1 100649Z 15001KT 10/10 A3012 RMK A01 T01000099  RH  099%=      5-min Rain = 0
KCH1 100650Z 14002KT 10/10 A3012 RMK A01 T01000099  RH  099%=      5-min Rain = 0
KCH1 100651Z 14002KT 10/10 A3012 RMK A01 T01000099  RH  099%=      5-min Rain = 0
KCH1 100652Z 13002KT 10/10 A3012 RMK A01 T01000098  RH  099%=      5-min Rain = 0
KCH1 100653Z 12001KT 10/10 A3012 RMK A01 T00980097  RH  099%=      5-min Rain = 0
KCH1 100654Z 12001KT 10/10 A3012 RMK A01 T00970095  RH  099%=      5-min Rain = 0
KCH1 100655Z 12002KT 10/09 A3012 RMK A01 T00960094  RH  099%=      5-min Rain = 0
KCH1 100656Z 11002KT 09/09 A3012 RMK A01 T00940092  RH  098%=      5-min Rain = 0
KCH1 100657Z 11002KT 09/09 A3012 RMK A01 T00900087  RH  097%=      5-min Rain = 0
KCH1 100658Z 12002KT 09/08 A3012 RMK A01 T00880084  RH  097%=      5-min Rain = 0
KCH1 100659Z 10002KT 09/09 A3012 RMK A01 T00880085  RH  098%=      5-min Rain = 0
KCH1 100700Z 10002KT 09/08 A3012 RMK A01 T00870084  RH  098%=      5-min Rain = 0
KCH1 100701Z 09002KT 09/08 A3012 RMK A01 T00850082  RH  098%=      5-min Rain = 0
KCH1 100702Z 09002KT 08/08 A3012 RMK A01 T00830079  RH  098%=      5-min Rain = 0
KCH1 100703Z 09002KT 08/08 A3012 RMK A01 T00820079  RH  098%=      5-min Rain = 0
KCH1 100704Z 09002KT 08/08 A3012 RMK A01 T00820080  RH  098%=      5-min Rain = 0
KCH1 100705Z 11002KT 08/08 A3012 RMK A01 T00830081  RH  099%=      5-min Rain = 0
KCH1 100706Z 11002KT 09/08 A3012 RMK A01 T00850084  RH  099%=      5-min Rain = 0
KCH1 100707Z 12001KT 09/09 A3012 RMK A01 T00860086  RH  100%=      5-min Rain = 0
KCH1 100708Z 11002KT 09/09 A3012 RMK A01 T00870087  RH  100%=      5-min Rain = 0
KCH1 100709Z 11002KT 09/09 A3012 RMK A01 T00870087  RH  100%=      5-min Rain = 0
KCH1 100710Z 11002KT 09/09 A3012 RMK A01 T00870086  RH  100%=      5-min Rain = 0
KCH1 100711Z 10002KT 09/09 A3012 RMK A01 T00870086  RH  100%=      5-min Rain = 0
KCH1 100712Z 10002KT 09/09 A3012 RMK A01 T00870086  RH  100%=      5-min Rain = 0
KCH1 100713Z 09002KT 09/09 A3012 RMK A01 T00870086  RH  100%=      5-min Rain = 0
KCH1 100714Z 09002KT 09/09 A3012 RMK A01 T00870087  RH  100%=      5-min Rain = 0
KCH1 100715Z 08002KT 09/09 A3012 RMK A01 T00870087  RH  100%=      5-min Rain = 0
KCH1 100716Z 09002KT 09/09 A3012 RMK A01 T00860086  RH  100%=      5-min Rain = 0
KCH1 100717Z 09002KT 09/09 A3012 RMK A01 T00870087  RH  100%=      5-min Rain = 0
KCH1 100718Z 09002KT 09/09 A3012 RMK A01 T00880088  RH  100%=      5-min Rain = 0
KCH1 100719Z 10002KT 09/09 A3012 RMK A01 T00890090  RH  100%=      5-min Rain = 0
KCH1 100720Z 10002KT 09/09 A3012 RMK A01 T00900090  RH  100%=      5-min Rain = 0
KCH1 100721Z 11002KT 09/09 A3012 RMK A01 T00900090  RH  100%=      5-min Rain = 0
KCH1 100722Z 10002KT 09/09 A3012 RMK A01 T00910091  RH  100%=      5-min Rain = 0
KCH1 100723Z 10002KT 09/09 A3012 RMK A01 T00900090  RH  100%=      5-min Rain = 0
KCH1 100724Z 09003KT 09/09 A3011 RMK A01 T00890089  RH  100%=      5-min Rain = 0
KCH1 100725Z 10002KT 09/09 A3011 RMK A01 T00890089  RH  100%=      5-min Rain = 0
KCH1 100726Z 11002KT 09/09 A3011 RMK A01 T00900090  RH  100%=      5-min Rain = 0
KCH1 100727Z 10002KT 09/09 A3011 RMK A01 T00910091  RH  100%=      5-min Rain = 0
KCH1 100728Z 10002KT 09/09 A3011 RMK A01 T00910091  RH  100%=      5-min Rain = 0
KCH1 100729Z 12002KT 09/09 A3011 RMK A01 T00920093  RH  100%=      5-min Rain = 0
KCH1 100730Z 14002KT 09/09 A3011 RMK A01 T00920092  RH  100%=      5-min Rain = 0
KCH1 100731Z 16001KT 09/09 A3011 RMK A01 T00920092  RH  100%=      5-min Rain = 0
KCH1 100732Z 14002KT 09/09 A3011 RMK A01 T00920092  RH  100%=      5-min Rain = 0
KCH1 100733Z 13002KT 09/09 A3011 RMK A01 T00920092  RH  100%=      5-min Rain = 0
KCH1 100734Z 15002KT 09/09 A3011 RMK A01 T00930093  RH  100%=      5-min Rain = 0
KCH1 100735Z 15003KT 10/10 A3011 RMK A01 T00960096  RH  100%=      5-min Rain = 0
KCH1 100736Z 14002KT 10/10 A3011 RMK A01 T00970097  RH  100%=      5-min Rain = 0
KCH1 100737Z 13001KT 10/10 A3011 RMK A01 T00990099  RH  100%=      5-min Rain = 0
KCH1 100738Z 12002KT 10/10 A3011 RMK A01 T00990099  RH  100%=      5-min Rain = 0
KCH1 100739Z 12002KT 10/10 A3011 RMK A01 T00990099  RH  100%=      5-min Rain = 0
KCH1 100740Z 13002KT 10/10 A3011 RMK A01 T00980098  RH  100%=      5-min Rain = 0
KCH1 100741Z 15002KT 10/10 A3011 RMK A01 T00960096  RH  100%=      5-min Rain = 0
KCH1 100742Z 14001KT 10/10 A3011 RMK A01 T00960096  RH  100%=      5-min Rain = 0
KCH1 100743Z 13001KT 10/10 A3011 RMK A01 T00970097  RH  100%=      5-min Rain = 0
KCH1 100744Z 14001KT 10/10 A3011 RMK A01 T00970097  RH  100%=      5-min Rain = 0
KCH1 100745Z 13001KT 10/10 A3011 RMK A01 T00980098  RH  100%=      5-min Rain = 0
KCH1 100746Z 13001KT 10/10 A3011 RMK A01 T00980098  RH  100%=      5-min Rain = 0
KCH1 100747Z 14001KT 10/10 A3011 RMK A01 T00980097  RH  100%=      5-min Rain = 0
KCH1 100748Z 14001KT 10/10 A3011 RMK A01 T00980098  RH  100%=      5-min Rain = 0
KCH1 100749Z 15001KT 10/10 A3011 RMK A01 T00980098  RH  100%=      5-min Rain = 0
KCH1 100750Z 15001KT 10/10 A3011 RMK A01 T00980097  RH  100%=      5-min Rain = 0
KCH1 100751Z 15002KT 10/10 A3011 RMK A01 T00980098  RH  100%=      5-min Rain = 0
KCH1 100752Z 15001KT 10/10 A3011 RMK A01 T00980098  RH  100%=      5-min Rain = 0
KCH1 100753Z 14001KT 10/10 A3011 RMK A01 T00980097  RH  100%=      5-min Rain = 0
KCH1 100754Z 15001KT 10/10 A3011 RMK A01 T00970096  RH  099%=      5-min Rain = 0
KCH1 100755Z 16002KT 10/10 A3011 RMK A01 T00970097  RH  100%=      5-min Rain = 0
KCH1 100756Z 13001KT 10/10 A3011 RMK A01 T00980097  RH  100%=      5-min Rain = 0
KCH1 100757Z 14001KT 10/10 A3011 RMK A01 T00980098  RH  100%=      5-min Rain = 0
KCH1 100758Z 14001KT 10/10 A3011 RMK A01 T00980097  RH  100%=      5-min Rain = 0
KCH1 100759Z 13002KT 10/10 A3011 RMK A01 T00970096  RH  099%=      5-min Rain = 0
KCH1 100800Z 11002KT 10/10 A3011 RMK A01 T00960095  RH  099%=      5-min Rain = 0
KCH1 100801Z 11002KT 10/09 A3011 RMK A01 T00950094  RH  099%=      5-min Rain = 0
KCH1 100802Z 11001KT 10/09 A3011 RMK A01 T00950094  RH  099%=      5-min Rain = 0
KCH1 100803Z 12002KT 10/09 A3011 RMK A01 T00950094  RH  099%=      5-min Rain = 0
KCH1 100804Z 10001KT 10/09 A3011 RMK A01 T00950094  RH  099%=      5-min Rain = 0
KCH1 100805Z 10002KT 09/09 A3011 RMK A01 T00940093  RH  099%=      5-min Rain = 0
KCH1 100806Z 12001KT 09/09 A3011 RMK A01 T00940093  RH  099%=      5-min Rain = 0
KCH1 100807Z 11001KT 09/09 A3011 RMK A01 T00940093  RH  099%=      5-min Rain = 0
KCH1 100808Z 10001KT 09/09 A3011 RMK A01 T00940093  RH  100%=      5-min Rain = 0
KCH1 100809Z 07001KT 09/09 A3011 RMK A01 T00940094  RH  100%=      5-min Rain = 0
KCH1 100810Z 08001KT 09/09 A3011 RMK A01 T00940094  RH  100%=      5-min Rain = 0
KCH1 100811Z 09000KT 09/09 A3011 RMK A01 T00940094  RH  100%=      5-min Rain = 0
KCH1 100812Z 09001KT 10/09 A3011 RMK A01 T00950094  RH  100%=      5-min Rain = 0
KCH1 100813Z 08001KT 10/10 A3011 RMK A01 T00950095  RH  100%=      5-min Rain = 0
KCH1 100814Z 09001KT 10/10 A3011 RMK A01 T00950095  RH  100%=      5-min Rain = 0
KCH1 100815Z 08001KT 10/10 A301 RMK A01 T00960096  RH  100%=      5-min Rain = 0
KCH1 100816Z 07001KT 10/10 A301 RMK A01 T00960096  RH  100%=      5-min Rain = 0
KCH1 100817Z 08001KT 10/10 A301 RMK A01 T00960096  RH  100%=      5-min Rain = 0
KCH1 100818Z 09001KT 10/10 A301 RMK A01 T00960096  RH  100%=      5-min Rain = 0
KCH1 100819Z 10001KT 10/10 A301 RMK A01 T00960097  RH  100%=      5-min Rain = 0
KCH1 100820Z 10001KT 10/10 A301 RMK A01 T00970097  RH  100%=      5-min Rain = 0
KCH1 100821Z 12001KT 10/10 A301 RMK A01 T00980098  RH  100%=      5-min Rain = 0
KCH1 100822Z 10001KT 10/10 A301 RMK A01 T00980099  RH  100%=      5-min Rain = 0
KCH1 100823Z 09001KT 10/10 A301 RMK A01 T00990099  RH  100%=      5-min Rain = 0
KCH1 100824Z 10001KT 10/10 A301 RMK A01 T00990099  RH  100%=      5-min Rain = 0
KCH1 100825Z 08001KT 10/10 A301 RMK A01 T01000100  RH  100%=      5-min Rain = 0
KCH1 100826Z 08002KT 10/10 A301 RMK A01 T00990099  RH  100%=      5-min Rain = 0
KCH1 100827Z 08002KT 10/10 A301 RMK A01 T00970097  RH  100%=      5-min Rain = 0
KCH1 100828Z 09002KT 10/10 A301 RMK A01 T00960096  RH  100%=      5-min Rain = 0
KCH1 100829Z 10002KT 10/10 A301 RMK A01 T00960095  RH  100%=      5-min Rain = 0
KCH1 100830Z 10002KT 10/10 A301 RMK A01 T00960096  RH  100%=      5-min Rain = 0
KCH1 100831Z 11002KT 10/10 A301 RMK A01 T00970097  RH  100%=      5-min Rain = 0
KCH1 100832Z 12002KT 10/10 A301 RMK A01 T00970097  RH  100%=      5-min Rain = 0
KCH1 100833Z 11003KT 10/10 A301 RMK A01 T00970097  RH  100%=      5-min Rain = 0
KCH1 100834Z 11003KT 10/10 A301 RMK A01 T00960096  RH  100%=      5-min Rain = 0
KCH1 100835Z 11003KT 10/10 A301 RMK A01 T00970097  RH  100%=      5-min Rain = 0
KCH1 100836Z 11003KT 10/10 A301 RMK A01 T00970097  RH  100%=      5-min Rain = 0
KCH1 100837Z 12003KT 10/10 A301 RMK A01 T00970097  RH  100%=      5-min Rain = 0
KCH1 100838Z 13002KT 10/10 A301 RMK A01 T00970097  RH  100%=      5-min Rain = 0
KCH1 100839Z 13002KT 10/10 A301 RMK A01 T00970097  RH  100%=      5-min Rain = 0
KCH1 100840Z 13002KT 10/10 A301 RMK A01 T00970097  RH  100%=      5-min Rain = 0
KCH1 100841Z 14002KT 10/10 A301 RMK A01 T00970097  RH  100%=      5-min Rain = 0
KCH1 100842Z 14002KT 10/10 A301 RMK A01 T00970097  RH  100%=      5-min Rain = 0
KCH1 100843Z 15002KT 10/10 A301 RMK A01 T00970097  RH  100%=      5-min Rain = 0
KCH1 100844Z 15002KT 10/10 A301 RMK A01 T00970097  RH  100%=      5-min Rain = 0
KCH1 100845Z 15002KT 10/10 A301 RMK A01 T00970097  RH  100%=      5-min Rain = 0
KCH1 100846Z 16002KT 10/10 A301 RMK A01 T00970097  RH  100%=      5-min Rain = 0
KCH1 100847Z 16002KT 10/10 A301 RMK A01 T00970097  RH  100%=      5-min Rain = 0
KCH1 100848Z 17002KT 10/10 A301 RMK A01 T00970097  RH  100%=      5-min Rain = 0
KCH1 100849Z 16002KT 10/10 A301 RMK A01 T00970097  RH  100%=      5-min Rain = 0
KCH1 100850Z 16002KT 10/10 A301 RMK A01 T00970097  RH  100%=      5-min Rain = 0
KCH1 100851Z 15002KT 10/10 A301 RMK A01 T00960096  RH  100%=      5-min Rain = 0
KCH1 100852Z 16002KT 10/10 A301 RMK A01 T00960096  RH  100%=      5-min Rain = 0
KCH1 100853Z 15002KT 10/10 A301 RMK A01 T00960096  RH  100%=      5-min Rain = 0
KCH1 100854Z 15002KT 10/10 A301 RMK A01 T00950095  RH  100%=      5-min Rain = 0
KCH1 100855Z 15002KT 10/10 A301 RMK A01 T00950095  RH  100%=      5-min Rain = 0
KCH1 100856Z 15002KT 10/10 A301 RMK A01 T00960096  RH  100%=      5-min Rain = 0
KCH1 100857Z 15002KT 10/10 A301 RMK A01 T00960096  RH  100%=      5-min Rain = 0
KCH1 100858Z 15002KT 10/10 A301 RMK A01 T00960096  RH  100%=      5-min Rain = 0
KCH1 100859Z 15002KT 10/10 A301 RMK A01 T00960096  RH  100%=      5-min Rain = 0
KCH1 100900Z 16002KT 10/10 A301 RMK A01 T00960096  RH  100%=      5-min Rain = 0
KCH1 100901Z 16002KT 10/10 A301 RMK A01 T00960096  RH  100%=      5-min Rain = 0
KCH1 100902Z 16002KT 10/10 A301 RMK A01 T00960096  RH  100%=      5-min Rain = 0
KCH1 100903Z 17002KT 10/10 A301 RMK A01 T00960096  RH  100%=      5-min Rain = 0
KCH1 100904Z 16002KT 10/10 A301 RMK A01 T00960096  RH  100%=      5-min Rain = 0
KCH1 100905Z 17003KT 10/10 A301 RMK A01 T00960097  RH  100%=      5-min Rain = 0
KCH1 100906Z 17003KT 10/10 A301 RMK A01 T00970097  RH  100%=      5-min Rain = 0
KCH1 100907Z 17003KT 10/10 A301 RMK A01 T00970097  RH  100%=      5-min Rain = 0
KCH1 100908Z 18003KT 10/10 A301 RMK A01 T00980098  RH  100%=      5-min Rain = 0
KCH1 100909Z 18003KT 10/10 A301 RMK A01 T00980098  RH  100%=      5-min Rain = 0
KCH1 100910Z 17004KT 10/10 A301 RMK A01 T00990099  RH  100%=      5-min Rain = 0
KCH1 100911Z 18003KT 10/10 A301 RMK A01 T01010101  RH  100%=      5-min Rain = 0
KCH1 100912Z 19004KT 10/10 A301 RMK A01 T01030103  RH  100%=      5-min Rain = 0
KCH1 100913Z 18004KT 10/10 A301 RMK A01 T01040104  RH  100%=      5-min Rain = 0
KCH1 100914Z 18003KT 11/11 A301 RMK A01 T01050105  RH  100%=      5-min Rain = 0
KCH1 100915Z 18003KT 11/11 A301 RMK A01 T01050105  RH  100%=      5-min Rain = 0
KCH1 100916Z 18003KT 11/11 A301 RMK A01 T01050105  RH  100%=      5-min Rain = 0
KCH1 100917Z 17003KT 10/10 A301 RMK A01 T01040104  RH  100%=      5-min Rain = 0
KCH1 100918Z 17003KT 10/10 A301 RMK A01 T01040104  RH  100%=      5-min Rain = 0
KCH1 100919Z 17003KT 10/10 A301 RMK A01 T01030103  RH  100%=      5-min Rain = 0
KCH1 100920Z 17003KT 10/10 A301 RMK A01 T01020102  RH  100%=      5-min Rain = 0
KCH1 100921Z 17002KT 10/10 A301 RMK A01 T01010101  RH  100%=      5-min Rain = 0
KCH1 100922Z 16003KT 10/10 A301 RMK A01 T01010101  RH  100%=      5-min Rain = 0
KCH1 100923Z 16003KT 10/10 A301 RMK A01 T01010101  RH  100%=      5-min Rain = 0
KCH1 100924Z 17003KT 10/10 A301 RMK A01 T01010101  RH  100%=      5-min Rain = 0
KCH1 100925Z 17002KT 10/10 A301 RMK A01 T01000100  RH  100%=      5-min Rain = 0
KCH1 100926Z 16002KT 10/10 A301 RMK A01 T00990099  RH  100%=      5-min Rain = 0
KCH1 100927Z 15002KT 10/10 A301 RMK A01 T00990099  RH  100%=      5-min Rain = 0
KCH1 100928Z 15002KT 10/10 A301 RMK A01 T00980097  RH  100%=      5-min Rain = 0
KCH1 100929Z 16002KT 10/10 A301 RMK A01 T00970096  RH  100%=      5-min Rain = 0
KCH1 100930Z 15002KT 10/10 A301 RMK A01 T00970097  RH  100%=      5-min Rain = 0
KCH1 100931Z 13002KT 10/10 A301 RMK A01 T00970097  RH  100%=      5-min Rain = 0
KCH1 100932Z 14002KT 10/10 A301 RMK A01 T00970097  RH  100%=      5-min Rain = 0
KCH1 100933Z 13002KT 10/10 A301 RMK A01 T00960096  RH  100%=      5-min Rain = 0
KCH1 100934Z 14002KT 10/09 A301 RMK A01 T00950094  RH  100%=      5-min Rain = 0
KCH1 100935Z 13002KT 09/09 A301 RMK A01 T00940094  RH  100%=      5-min Rain = 0
KCH1 100936Z 13002KT 09/09 A301 RMK A01 T00940094  RH  100%=      5-min Rain = 0
KCH1 100937Z 13002KT 09/09 A301 RMK A01 T00940094  RH  100%=      5-min Rain = 0
KCH1 100938Z 13003KT 09/09 A301 RMK A01 T00940094  RH  100%=      5-min Rain = 0
KCH1 100939Z 12002KT 09/09 A301 RMK A01 T00940094  RH  100%=      5-min Rain = 0
KCH1 100940Z 13003KT 09/09 A301 RMK A01 T00930093  RH  100%=      5-min Rain = 0
KCH1 100941Z 13002KT 09/09 A301 RMK A01 T00930093  RH  100%=      5-min Rain = 0
KCH1 100942Z 14002KT 09/09 A301 RMK A01 T00940094  RH  100%=      5-min Rain = 0
KCH1 100943Z 14002KT 09/09 A301 RMK A01 T00940094  RH  100%=      5-min Rain = 0
KCH1 100944Z 12002KT 09/09 A301 RMK A01 T00930093  RH  100%=      5-min Rain = 0
KCH1 100945Z 15002KT 09/09 A301 RMK A01 T00920092  RH  100%=      5-min Rain = 0
KCH1 100946Z 15002KT 09/09 A301 RMK A01 T00920092  RH  100%=      5-min Rain = 0
KCH1 100947Z 14002KT 09/09 A301 RMK A01 T00930093  RH  100%=      5-min Rain = 0
KCH1 100948Z 15003KT 09/09 A301 RMK A01 T00940094  RH  100%=      5-min Rain = 0
KCH1 100949Z 14002KT 09/09 A301 RMK A01 T00940094  RH  100%=      5-min Rain = 0
KCH1 100950Z 13002KT 10/10 A301 RMK A01 T00950095  RH  100%=      5-min Rain = 0
KCH1 100951Z 12003KT 10/10 A301 RMK A01 T00950095  RH  100%=      5-min Rain = 0
KCH1 100952Z 12003KT 09/09 A301 RMK A01 T00940094  RH  100%=      5-min Rain = 0
KCH1 100953Z 12003KT 09/09 A301 RMK A01 T00940094  RH  100%=      5-min Rain = 0
KCH1 100954Z 11003KT 09/09 A301 RMK A01 T00930093  RH  100%=      5-min Rain = 0
KCH1 100955Z 12003KT 09/09 A301 RMK A01 T00920092  RH  100%=      5-min Rain = 0
KCH1 100956Z 13003KT 09/09 A301 RMK A01 T00920092  RH  100%=      5-min Rain = 0
KCH1 100957Z 12003KT 09/09 A301 RMK A01 T00930093  RH  100%=      5-min Rain = 0
KCH1 100958Z 12003KT 09/09 A301 RMK A01 T00930093  RH  100%=      5-min Rain = 0
KCH1 100959Z 12002KT 09/09 A301 RMK A01 T00930093  RH  100%=      5-min Rain = 0
KCH1 101000Z 13003KT 09/09 A3009 RMK A01 T00940094  RH  100%=      5-min Rain = 0
KCH1 101001Z 14002KT 10/10 A3009 RMK A01 T00950095  RH  100%=      5-min Rain = 0
KCH1 101002Z 15002KT 10/10 A3009 RMK A01 T00960096  RH  100%=      5-min Rain = 0
KCH1 101003Z 13001KT 10/10 A3009 RMK A01 T00970097  RH  100%=      5-min Rain = 0
KCH1 101004Z 14002KT 10/10 A3009 RMK A01 T00990099  RH  100%=      5-min Rain = 0
KCH1 101005Z 15002KT 10/10 A3009 RMK A01 T01000100  RH  100%=      5-min Rain = 0
KCH1 101006Z 14002KT 10/10 A3009 RMK A01 T01000101  RH  100%=      5-min Rain = 0
KCH1 101007Z 15002KT 10/10 A3009 RMK A01 T01000100  RH  100%=      5-min Rain = 0
KCH1 101008Z 15002KT 10/10 A3009 RMK A01 T01000100  RH  100%=      5-min Rain = 0
KCH1 101009Z 16002KT 10/10 A3009 RMK A01 T00990099  RH  100%=      5-min Rain = 0
KCH1 101010Z 15002KT 10/10 A3009 RMK A01 T01010101  RH  100%=      5-min Rain = 0
KCH1 101011Z 15002KT 10/10 A3009 RMK A01 T01010101  RH  100%=      5-min Rain = 0
KCH1 101012Z 16002KT 10/10 A3009 RMK A01 T01010101  RH  100%=      5-min Rain = 0
KCH1 101013Z 15003KT 10/10 A3009 RMK A01 T01010101  RH  100%=      5-min Rain = 0
KCH1 101014Z 16003KT 10/10 A3009 RMK A01 T00990099  RH  100%=      5-min Rain = 0
KCH1 101015Z 16003KT 10/10 A3009 RMK A01 T00980098  RH  100%=      5-min Rain = 0
KCH1 101016Z 17003KT 10/10 A3009 RMK A01 T00980098  RH  100%=      5-min Rain = 0
KCH1 101017Z 16003KT 10/10 A3009 RMK A01 T00980098  RH  100%=      5-min Rain = 0
KCH1 101018Z 17003KT 10/10 A3009 RMK A01 T00980098  RH  100%=      5-min Rain = 0
KCH1 101019Z 18003KT 10/10 A3009 RMK A01 T00980098  RH  100%=      5-min Rain = 0
KCH1 101020Z 18002KT 10/10 A3009 RMK A01 T00980098  RH  100%=      5-min Rain = 0
KCH1 101021Z 18002KT 10/10 A3009 RMK A01 T00980098  RH  100%=      5-min Rain = 0
KCH1 101022Z 18002KT 10/10 A3009 RMK A01 T00980098  RH  100%=      5-min Rain = 0
KCH1 101023Z 20002KT 10/10 A3009 RMK A01 T00980098  RH  100%=      5-min Rain = 0
KCH1 101024Z 20002KT 10/10 A3009 RMK A01 T00970097  RH  100%=      5-min Rain = 0
KCH1 101025Z 19002KT 10/10 A3009 RMK A01 T00970097  RH  100%=      5-min Rain = 0
KCH1 101026Z 19001KT 10/10 A3009 RMK A01 T00970097  RH  100%=      5-min Rain = 0
KCH1 101027Z 20002KT 10/10 A3009 RMK A01 T00970097  RH  100%=      5-min Rain = 0
KCH1 101028Z 20003KT 10/10 A3009 RMK A01 T00980098  RH  100%=      5-min Rain = 0
KCH1 101029Z 20002KT 10/10 A3009 RMK A01 T00980098  RH  100%=      5-min Rain = 0
KCH1 101030Z 20003KT 10/10 A3009 RMK A01 T00980098  RH  100%=      5-min Rain = 0
KCH1 101031Z 20003KT 10/10 A3009 RMK A01 T01000100  RH  100%=      5-min Rain = 0
KCH1 101032Z 20003KT 10/10 A3009 RMK A01 T01010101  RH  100%=      5-min Rain = 0
KCH1 101033Z 19003KT 10/10 A3009 RMK A01 T01020102  RH  100%=      5-min Rain = 0
KCH1 101034Z 19004KT 10/10 A3009 RMK A01 T01020102  RH  100%=      5-min Rain = 0
KCH1 101035Z 19003KT 10/10 A3009 RMK A01 T01020102  RH  100%=      5-min Rain = 0
KCH1 101036Z 18002KT 10/10 A3009 RMK A01 T01020102  RH  100%=      5-min Rain = 0
KCH1 101037Z 18002KT 10/10 A3009 RMK A01 T01020102  RH  100%=      5-min Rain = 0
KCH1 101038Z 19002KT 10/10 A3009 RMK A01 T01010101  RH  100%=      5-min Rain = 0
KCH1 101039Z 17002KT 10/10 A3009 RMK A01 T01000100  RH  100%=      5-min Rain = 0
KCH1 101040Z 18002KT 10/10 A3009 RMK A01 T01010101  RH  100%=      5-min Rain = 0
KCH1 101041Z 18002KT 10/10 A3009 RMK A01 T01000100  RH  100%=      5-min Rain = 0
KCH1 101042Z 19003KT 10/10 A3009 RMK A01 T01000100  RH  100%=      5-min Rain = 0
KCH1 101043Z 18002KT 10/10 A3009 RMK A01 T01010101  RH  100%=      5-min Rain = 0
KCH1 101044Z 19002KT 10/10 A3009 RMK A01 T01020102  RH  100%=      5-min Rain = 0
KCH1 101045Z 19002KT 10/10 A3009 RMK A01 T01030103  RH  100%=      5-min Rain = 0
KCH1 101046Z 19002KT 10/10 A3009 RMK A01 T01040104  RH  100%=      5-min Rain = 0
KCH1 101047Z 19002KT 11/11 A3009 RMK A01 T01050105  RH  100%=      5-min Rain = 0
KCH1 101048Z 18002KT 11/11 A3009 RMK A01 T01050105  RH  100%=      5-min Rain = 0
KCH1 101049Z 18001KT 11/11 A3009 RMK A01 T01050105  RH  100%=      5-min Rain = 0
KCH1 101050Z 16001KT 11/11 A3009 RMK A01 T01050105  RH  100%=      5-min Rain = 0
KCH1 101051Z 15002KT 10/10 A3009 RMK A01 T01030103  RH  100%=      5-min Rain = 0
KCH1 101052Z 15002KT 10/10 A3009 RMK A01 T01030102  RH  100%=      5-min Rain = 0
KCH1 101053Z 15002KT 10/10 A3009 RMK A01 T01030103  RH  100%=      5-min Rain = 0
KCH1 101054Z 14002KT 10/10 A3009 RMK A01 T01030103  RH  100%=      5-min Rain = 0
KCH1 101055Z 14002KT 10/10 A3009 RMK A01 T01030103  RH  100%=      5-min Rain = 0
KCH1 101056Z 15002KT 10/10 A3009 RMK A01 T01030103  RH  100%=      5-min Rain = 0
KCH1 101057Z 13002KT 10/10 A3009 RMK A01 T01030103  RH  100%=      5-min Rain = 0
KCH1 101058Z 13003KT 10/10 A3009 RMK A01 T01020102  RH  100%=      5-min Rain = 0
KCH1 101059Z 14002KT 10/10 A3009 RMK A01 T01020102  RH  100%=      5-min Rain = 0
KCH1 101100Z 13002KT 10/10 A3009 RMK A01 T01030103  RH  100%=      5-min Rain = 0
KCH1 101101Z 14002KT 10/10 A3009 RMK A01 T01030103  RH  100%=      5-min Rain = 0
KCH1 101102Z 14003KT 10/10 A3009 RMK A01 T01030102  RH  100%=      5-min Rain = 0
KCH1 101103Z 15003KT 10/10 A3009 RMK A01 T01020101  RH  099%=      5-min Rain = 0
KCH1 101104Z 15002KT 10/10 A3009 RMK A01 T01010100  RH  099%=      5-min Rain = 0
KCH1 101105Z 14002KT 10/10 A3009 RMK A01 T01000099  RH  099%=      5-min Rain = 0
KCH1 101106Z 14002KT 10/10 A3009 RMK A01 T01010100  RH  099%=      5-min Rain = 0
KCH1 101107Z 14002KT 10/10 A3009 RMK A01 T01010101  RH  100%=      5-min Rain = 0
KCH1 101108Z 12002KT 10/10 A3009 RMK A01 T01010100  RH  099%=      5-min Rain = 0
KCH1 101109Z 13003KT 10/10 A3009 RMK A01 T01000098  RH  099%=      5-min Rain = 0
KCH1 101110Z 14003KT 10/10 A3009 RMK A01 T00980096  RH  099%=      5-min Rain = 0
KCH1 101111Z 12002KT 10/10 A3009 RMK A01 T00970095  RH  099%=      5-min Rain = 0
KCH1 101112Z 13002KT 10/09 A3009 RMK A01 T00960094  RH  099%=      5-min Rain = 0
KCH1 101113Z 13002KT 10/09 A3009 RMK A01 T00950092  RH  098%=      5-min Rain = 0
KCH1 101114Z 13002KT 09/09 A3009 RMK A01 T00930091  RH  098%=      5-min Rain = 0
KCH1 101115Z 12002KT 09/09 A3009 RMK A01 T00920089  RH  098%=      5-min Rain = 0
KCH1 101116Z 12002KT 09/09 A3009 RMK A01 T00920090  RH  099%=      5-min Rain = 0
KCH1 101117Z 13002KT 09/09 A3009 RMK A01 T00920090  RH  099%=      5-min Rain = 0
KCH1 101118Z 13002KT 09/09 A3009 RMK A01 T00920090  RH  099%=      5-min Rain = 0
KCH1 101119Z 12002KT 09/09 A3009 RMK A01 T00920091  RH  099%=      5-min Rain = 0
KCH1 101120Z 12001KT 09/09 A3009 RMK A01 T00920091  RH  099%=      5-min Rain = 0
KCH1 101121Z 11000KT 09/09 A3009 RMK A01 T00920091  RH  099%=      5-min Rain = 0
KCH1 101122Z 11000KT 09/09 A3008 RMK A01 T00920091  RH  100%=      5-min Rain = 0
KCH1 101123Z 16000KT 09/09 A3008 RMK A01 T00920092  RH  100%=      5-min Rain = 0
KCH1 101124Z 13000KT 09/09 A3008 RMK A01 T00930093  RH  100%=      5-min Rain = 0
KCH1 101125Z 00000KT 09/09 A3008 RMK A01 T00940094  RH  100%=      5-min Rain = 0
KCH1 101126Z 12000KT 09/09 A3008 RMK A01 T00940094  RH  100%=      5-min Rain = 0
KCH1 101127Z 11002KT 10/10 A3008 RMK A01 T00950095  RH  100%=      5-min Rain = 0
KCH1 101128Z 08001KT 10/10 A3008 RMK A01 T00960096  RH  100%=      5-min Rain = 0
KCH1 101129Z 07001KT 10/10 A3008 RMK A01 T00970097  RH  100%=      5-min Rain = 0
KCH1 101130Z 06001KT 10/10 A3008 RMK A01 T00960097  RH  100%=      5-min Rain = 0
KCH1 101131Z 06001KT 10/10 A3008 RMK A01 T00960096  RH  100%=      5-min Rain = 0
KCH1 101132Z 07002KT 10/10 A3008 RMK A01 T00970097  RH  100%=      5-min Rain = 0
KCH1 101133Z 08002KT 10/10 A3008 RMK A01 T00970097  RH  100%=      5-min Rain = 0
KCH1 101134Z 09002KT 10/10 A3008 RMK A01 T00970097  RH  100%=      5-min Rain = 0
KCH1 101135Z 10002KT 10/10 A3008 RMK A01 T00970097  RH  100%=      5-min Rain = 0
KCH1 101136Z 09002KT 10/10 A3008 RMK A01 T00980098  RH  100%=      5-min Rain = 0
KCH1 101137Z 08001KT 10/10 A3008 RMK A01 T00970097  RH  100%=      5-min Rain = 0
KCH1 101138Z 12001KT 10/10 A3008 RMK A01 T00970097  RH  100%=      5-min Rain = 0
KCH1 101139Z 12001KT 10/10 A3008 RMK A01 T00960096  RH  100%=      5-min Rain = 0
KCH1 101140Z 11001KT 10/10 A3008 RMK A01 T00960096  RH  100%=      5-min Rain = 0
KCH1 101141Z 13002KT 10/10 A3008 RMK A01 T00960096  RH  100%=      5-min Rain = 0
KCH1 101142Z 13001KT 10/10 A3008 RMK A01 T00960096  RH  100%=      5-min Rain = 0
KCH1 101143Z 19001KT 10/10 A3008 RMK A01 T00960096  RH  100%=      5-min Rain = 0
KCH1 101144Z 10000KT 10/10 A3008 RMK A01 T00950095  RH  100%=      5-min Rain = 0
KCH1 101145Z 10001KT 09/09 A3008 RMK A01 T00940094  RH  100%=      5-min Rain = 0
KCH1 101146Z 04000KT 10/10 A3008 RMK A01 T00950095  RH  100%=      5-min Rain = 0
KCH1 101147Z 06000KT 10/10 A3008 RMK A01 T00950095  RH  100%=      5-min Rain = 0
KCH1 101148Z 09001KT 10/10 A3008 RMK A01 T00950095  RH  100%=      5-min Rain = 0
KCH1 101149Z 07001KT 10/10 A3008 RMK A01 T00950095  RH  100%=      5-min Rain = 0
KCH1 101150Z 06001KT 10/10 A3008 RMK A01 T00950095  RH  100%=      5-min Rain = 0
KCH1 101151Z 09001KT 10/10 A3008 RMK A01 T00960096  RH  100%=      5-min Rain = 0
KCH1 101152Z 08001KT 10/10 A3008 RMK A01 T00950096  RH  100%=      5-min Rain = 0
KCH1 101153Z 08001KT 10/10 A3008 RMK A01 T00960096  RH  100%=      5-min Rain = 0
KCH1 101154Z 10001KT 10/10 A3008 RMK A01 T00970097  RH  100%=      5-min Rain = 0
KCH1 101155Z 06001KT 10/10 A3008 RMK A01 T00980098  RH  100%=      5-min Rain = 0
KCH1 101156Z 06001KT 10/10 A3008 RMK A01 T00990099  RH  100%=      5-min Rain = 0
KCH1 101157Z 08001KT 10/10 A3008 RMK A01 T00990099  RH  100%=      5-min Rain = 0
KCH1 101158Z 08001KT 10/10 A3008 RMK A01 T00990099  RH  100%=      5-min Rain = 0
KCH1 101159Z 08001KT 10/10 A3008 RMK A01 T00990099  RH  100%=      5-min Rain = 0
KCH1 101200Z 07001KT 10/10 A3008 RMK A01 T00990099  RH  100%=      5-min Rain = 0
KCH1 101201Z 09001KT 10/10 A3008 RMK A01 T00990099  RH  100%=      5-min Rain = 0
KCH1 101202Z 11001KT 10/10 A3008 RMK A01 T00990099  RH  100%=      5-min Rain = 0
KCH1 101203Z 11001KT 10/10 A3008 RMK A01 T01000100  RH  100%=      5-min Rain = 0
KCH1 101204Z 10001KT 10/10 A3008 RMK A01 T01000100  RH  100%=      5-min Rain = 0
KCH1 101205Z 09001KT 10/10 A3008 RMK A01 T01000100  RH  100%=      5-min Rain = 0
KCH1 101206Z 08001KT 10/10 A3008 RMK A01 T01000100  RH  100%=      5-min Rain = 0
KCH1 101207Z 08001KT 10/10 A3008 RMK A01 T00990099  RH  100%=      5-min Rain = 0
KCH1 101208Z 07001KT 10/10 A3008 RMK A01 T00990099  RH  100%=      5-min Rain = 0
KCH1 101209Z 07001KT 10/10 A3008 RMK A01 T00990099  RH  100%=      5-min Rain = 0
KCH1 101210Z 05001KT 10/10 A3008 RMK A01 T00990099  RH  100%=      5-min Rain = 0
KCH1 101211Z 05001KT 10/10 A3009 RMK A01 T00990099  RH  100%=      5-min Rain = 0
KCH1 101212Z 05001KT 10/10 A3009 RMK A01 T00990099  RH  100%=      5-min Rain = 0
KCH1 101213Z 05001KT 10/10 A3008 RMK A01 T00990099  RH  100%=      5-min Rain = 0
KCH1 101214Z 08001KT 10/10 A3009 RMK A01 T00990099  RH  100%=      5-min Rain = 0
KCH1 101215Z 06001KT 10/10 A3009 RMK A01 T00990099  RH  100%=      5-min Rain = 0
KCH1 101216Z 11001KT 10/10 A3009 RMK A01 T01000100  RH  100%=      5-min Rain = 0
KCH1 101217Z 06000KT 10/10 A3009 RMK A01 T01010101  RH  100%=      5-min Rain = 0
KCH1 101218Z 05001KT 10/10 A3009 RMK A01 T01010102  RH  100%=      5-min Rain = 0
KCH1 101219Z 07000KT 10/10 A3009 RMK A01 T01020102  RH  100%=      5-min Rain = 0
KCH1 101220Z 08001KT 10/10 A3008 RMK A01 T01020103  RH  100%=      5-min Rain = 0
KCH1 101221Z 12002KT 10/10 A3008 RMK A01 T01030103  RH  100%=      5-min Rain = 0
KCH1 101222Z 09002KT 10/10 A3008 RMK A01 T01020102  RH  100%=      5-min Rain = 0
KCH1 101223Z 10002KT 10/10 A3008 RMK A01 T01010101  RH  100%=      5-min Rain = 0
KCH1 101224Z 11002KT 10/10 A3008 RMK A01 T01000100  RH  100%=      5-min Rain = 0
KCH1 101225Z 11002KT 10/10 A3008 RMK A01 T00990099  RH  100%=      5-min Rain = 0
KCH1 101226Z 13002KT 10/10 A3008 RMK A01 T01000100  RH  100%=      5-min Rain = 0
KCH1 101227Z 11002KT 10/10 A3008 RMK A01 T01000100  RH  100%=      5-min Rain = 0
KCH1 101228Z 13003KT 10/10 A3008 RMK A01 T00990099  RH  100%=      5-min Rain = 0
KCH1 101229Z 12002KT 10/10 A3008 RMK A01 T00990099  RH  100%=      5-min Rain = 0
KCH1 101230Z 11002KT 10/10 A3008 RMK A01 T00990099  RH  100%=      5-min Rain = 0
KCH1 101231Z 11003KT 10/10 A3008 RMK A01 T00990099  RH  100%=      5-min Rain = 0
KCH1 101232Z 12003KT 10/10 A3009 RMK A01 T00980098  RH  100%=      5-min Rain = 0
KCH1 101233Z 12003KT 10/10 A3009 RMK A01 T00980098  RH  100%=      5-min Rain = 0
KCH1 101234Z 12003KT 10/10 A3009 RMK A01 T00980098  RH  100%=      5-min Rain = 0
KCH1 101235Z 12003KT 10/10 A3009 RMK A01 T00980098  RH  100%=      5-min Rain = 0
KCH1 101236Z 13003KT 10/10 A3009 RMK A01 T00990099  RH  100%=      5-min Rain = 0
KCH1 101237Z 13003KT 10/10 A3009 RMK A01 T00990099  RH  100%=      5-min Rain = 0
KCH1 101238Z 13003KT 10/10 A3009 RMK A01 T00990099  RH  100%=      5-min Rain = 0
KCH1 101239Z 14004KT 10/10 A3009 RMK A01 T01000100  RH  100%=      5-min Rain = 0
KCH1 101240Z 14004KT 10/10 A3009 RMK A01 T01010101  RH  100%=      5-min Rain = 0
KCH1 101241Z 14004KT 10/10 A3009 RMK A01 T01010101  RH  100%=      5-min Rain = 0
KCH1 101242Z 14004KT 10/10 A3009 RMK A01 T01010101  RH  100%=      5-min Rain = 0
KCH1 101243Z 14005KT 10/10 A3009 RMK A01 T01010101  RH  100%=      5-min Rain = 0
KCH1 101244Z 13004KT 10/10 A3009 RMK A01 T01010101  RH  100%=      5-min Rain = 0
KCH1 101245Z 13004KT 10/10 A3009 RMK A01 T01010101  RH  100%=      5-min Rain = 0
KCH1 101246Z 13004KT 10/10 A3009 RMK A01 T01020102  RH  100%=      5-min Rain = 0
KCH1 101247Z 13004KT 10/10 A3009 RMK A01 T01020102  RH  100%=      5-min Rain = 0
KCH1 101248Z 13005KT 10/10 A3009 RMK A01 T01020102  RH  100%=      5-min Rain = 0
KCH1 101249Z 13004KT 10/10 A3009 RMK A01 T01020102  RH  100%=      5-min Rain = 0
KCH1 101250Z 13004KT 10/10 A3009 RMK A01 T01020101  RH  100%=      5-min Rain = 0
KCH1 101251Z 14004KT 10/10 A3009 RMK A01 T01020101  RH  100%=      5-min Rain = 0
KCH1 101252Z 14003KT 10/10 A3009 RMK A01 T01020102  RH  100%=      5-min Rain = 0
KCH1 101253Z 14003KT 10/10 A3009 RMK A01 T01020102  RH  100%=      5-min Rain = 0
KCH1 101254Z 14003KT 10/10 A3009 RMK A01 T01020102  RH  100%=      5-min Rain = 0
KCH1 101255Z 15002KT 10/10 A3009 RMK A01 T01020102  RH  100%=      5-min Rain = 0
KCH1 101256Z 15003KT 10/10 A3009 RMK A01 T01020102  RH  100%=      5-min Rain = 0
KCH1 101257Z 15003KT 10/10 A3009 RMK A01 T01020101  RH  100%=      5-min Rain = 0
KCH1 101258Z 16002KT 10/10 A3009 RMK A01 T01020101  RH  100%=      5-min Rain = 0
KCH1 101259Z 14003KT 10/10 A3009 RMK A01 T01020101  RH  100%=      5-min Rain = 0
KCH1 101300Z 14003KT 10/10 A3009 RMK A01 T01020101  RH  100%=      5-min Rain = 0
KCH1 101301Z 14003KT 10/10 A3009 RMK A01 T01010100  RH  099%=      5-min Rain = 0
KCH1 101302Z 14003KT 10/10 A3009 RMK A01 T01000099  RH  099%=      5-min Rain = 0
KCH1 101303Z 15003KT 10/10 A3009 RMK A01 T01000099  RH  099%=      5-min Rain = 0
KCH1 101304Z 15004KT 10/10 A3009 RMK A01 T01000099  RH  099%=      5-min Rain = 0
KCH1 101305Z 15004KT 10/10 A3009 RMK A01 T00990098  RH  099%=      5-min Rain = 0
KCH1 101306Z 15003KT 10/10 A3009 RMK A01 T00990098  RH  099%=      5-min Rain = 0
KCH1 101307Z 14003KT 10/10 A3009 RMK A01 T00980098  RH  100%=      5-min Rain = 0
KCH1 101308Z 15003KT 10/10 A3009 RMK A01 T00980098  RH  100%=      5-min Rain = 0
KCH1 101309Z 14003KT 10/10 A3009 RMK A01 T00980098  RH  100%=      5-min Rain = 0
KCH1 101310Z 14003KT 10/10 A3009 RMK A01 T00980098  RH  100%=      5-min Rain = 0
KCH1 101311Z 14002KT 10/10 A3009 RMK A01 T00980098  RH  100%=      5-min Rain = 0
KCH1 101312Z 14003KT 10/10 A3009 RMK A01 T00980098  RH  100%=      5-min Rain = 0
KCH1 101313Z 14003KT 10/10 A3009 RMK A01 T00980098  RH  100%=      5-min Rain = 0
KCH1 101314Z 14003KT 10/10 A3009 RMK A01 T00980098  RH  100%=      5-min Rain = 0
KCH1 101315Z 14002KT 10/10 A3009 RMK A01 T00980098  RH  100%=      5-min Rain = 0
KCH1 101316Z 14002KT 10/10 A3009 RMK A01 T00980098  RH  100%=      5-min Rain = 0
KCH1 101317Z 13002KT 10/10 A3009 RMK A01 T00980098  RH  100%=      5-min Rain = 0
KCH1 101318Z 13002KT 10/10 A3009 RMK A01 T00980098  RH  100%=      5-min Rain = 0
KCH1 101319Z 12002KT 10/10 A3009 RMK A01 T00970096  RH  100%=      5-min Rain = 0
KCH1 101320Z 10002KT 10/10 A3009 RMK A01 T00960096  RH  100%=      5-min Rain = 0
KCH1 101321Z 11003KT 10/10 A3009 RMK A01 T00950095  RH  100%=      5-min Rain = 0
KCH1 101322Z 12003KT 10/09 A3009 RMK A01 T00950094  RH  100%=      5-min Rain = 0
KCH1 101323Z 13003KT 10/10 A3009 RMK A01 T00950095  RH  100%=      5-min Rain = 0
KCH1 101324Z 12004KT 10/10 A3009 RMK A01 T00950095  RH  100%=      5-min Rain = 0
KCH1 101325Z 12003KT 10/10 A3009 RMK A01 T00960096  RH  100%=      5-min Rain = 0
KCH1 101326Z 12003KT 10/10 A3009 RMK A01 T00960096  RH  100%=      5-min Rain = 0
KCH1 101327Z 12003KT 10/10 A3009 RMK A01 T00970097  RH  100%=      5-min Rain = 0
KCH1 101328Z 12003KT 10/10 A3009 RMK A01 T00970097  RH  100%=      5-min Rain = 0
KCH1 101329Z 13003KT 10/10 A3009 RMK A01 T00970097  RH  100%=      5-min Rain = 0
KCH1 101330Z 12003KT 10/10 A3009 RMK A01 T00980098  RH  100%=      5-min Rain = 0
KCH1 101331Z 13003KT 10/10 A3009 RMK A01 T00980099  RH  100%=      5-min Rain = 0
KCH1 101332Z 13002KT 10/10 A3009 RMK A01 T00990099  RH  100%=      5-min Rain = 0
KCH1 101333Z 14002KT 10/10 A3009 RMK A01 T01000100  RH  100%=      5-min Rain = 0
KCH1 101334Z 14002KT 10/10 A3009 RMK A01 T01000100  RH  100%=      5-min Rain = 0
KCH1 101335Z 14003KT 10/10 A3009 RMK A01 T01010101  RH  100%=      5-min Rain = 0
KCH1 101336Z 14003KT 10/10 A3009 RMK A01 T01020102  RH  100%=      5-min Rain = 0
KCH1 101337Z 15003KT 10/10 A3009 RMK A01 T01020102  RH  100%=      5-min Rain = 0
KCH1 101338Z 15003KT 10/10 A3009 RMK A01 T01020102  RH  100%=      5-min Rain = 0
KCH1 101339Z 14002KT 10/10 A3009 RMK A01 T01020102  RH  100%=      5-min Rain = 0
KCH1 101340Z 14003KT 10/10 A3009 RMK A01 T01020102  RH  100%=      5-min Rain = 0
KCH1 101341Z 14003KT 10/10 A3009 RMK A01 T01020102  RH  100%=      5-min Rain = 0
KCH1 101342Z 14004KT 10/10 A3009 RMK A01 T01020102  RH  100%=      5-min Rain = 0
KCH1 101343Z 14003KT 10/10 A3009 RMK A01 T01030103  RH  100%=      5-min Rain = 0
KCH1 101344Z 14003KT 10/10 A3009 RMK A01 T01030102  RH  100%=      5-min Rain = 0
KCH1 101345Z 15004KT 10/10 A3009 RMK A01 T01030102  RH  100%=      5-min Rain = 0
KCH1 101346Z 15003KT 10/10 A3009 RMK A01 T01030102  RH  099%=      5-min Rain = 0
KCH1 101347Z 14003KT 10/10 A3009 RMK A01 T01030102  RH  099%=      5-min Rain = 0
KCH1 101348Z 13003KT 10/10 A3009 RMK A01 T01030102  RH  099%=      5-min Rain = 0
KCH1 101349Z 14003KT 10/10 A3009 RMK A01 T01040103  RH  099%=      5-min Rain = 0
KCH1 101350Z 14003KT 10/10 A3009 RMK A01 T01030102  RH  099%=      5-min Rain = 0
KCH1 101351Z 13002KT 10/10 A3009 RMK A01 T01040102  RH  099%=      5-min Rain = 0
KCH1 101352Z 13003KT 10/10 A3009 RMK A01 T01040102  RH  099%=      5-min Rain = 0
KCH1 101353Z 13003KT 11/10 A3009 RMK A01 T01050103  RH  099%=      5-min Rain = 0
KCH1 101354Z 12003KT 10/10 A3009 RMK A01 T01040103  RH  099%=      5-min Rain = 0
KCH1 101355Z 13003KT 11/10 A3009 RMK A01 T01050103  RH  099%=      5-min Rain = 0
KCH1 101356Z 12002KT 11/10 A3009 RMK A01 T01050104  RH  099%=      5-min Rain = 0
KCH1 101357Z 12003KT 11/10 A3009 RMK A01 T01060104  RH  099%=      5-min Rain = 0
KCH1 101358Z 12003KT 11/11 A3009 RMK A01 T01060105  RH  099%=      5-min Rain = 0
KCH1 101359Z 11002KT 11/10 A3009 RMK A01 T01060104  RH  099%=      5-min Rain = 0
KCH1 101400Z 11003KT 11/10 A3009 RMK A01 T01060104  RH  099%=      5-min Rain = 0
KCH1 101401Z 12002KT 11/10 A3009 RMK A01 T01070104  RH  099%=      5-min Rain = 0
KCH1 101402Z 12002KT 11/10 A3009 RMK A01 T01060104  RH  098%=      5-min Rain = 0
KCH1 101403Z 14001KT 11/11 A3009 RMK A01 T01080106  RH  099%=      5-min Rain = 0
KCH1 101404Z 12003KT 11/11 A3009 RMK A01 T01090107  RH  099%=      5-min Rain = 0
KCH1 101405Z 12002KT 11/11 A3009 RMK A01 T01100108  RH  099%=      5-min Rain = 0
KCH1 101406Z 12001KT 11/11 A3009 RMK A01 T01090107  RH  098%=      5-min Rain = 0
KCH1 101407Z 13003KT 11/11 A3009 RMK A01 T01090106  RH  098%=      5-min Rain = 0
KCH1 101408Z 13003KT 11/11 A3009 RMK A01 T01090106  RH  098%=      5-min Rain = 0
KCH1 101409Z 13002KT 11/11 A3009 RMK A01 T01090105  RH  098%=      5-min Rain = 0
KCH1 101410Z 13003KT 11/11 A3009 RMK A01 T01080105  RH  098%=      5-min Rain = 0
KCH1 101411Z 13002KT 11/11 A3009 RMK A01 T01080105  RH  098%=      5-min Rain = 0
KCH1 101412Z 14002KT 11/11 A3009 RMK A01 T01090105  RH  098%=      5-min Rain = 0
KCH1 101413Z 14002KT 11/11 A3009 RMK A01 T01100107  RH  098%=      5-min Rain = 0
KCH1 101414Z 15002KT 11/11 A3009 RMK A01 T01110109  RH  098%=      5-min Rain = 0
KCH1 101415Z 16003KT 11/11 A3009 RMK A01 T01120109  RH  098%=      5-min Rain = 0
KCH1 101416Z 15002KT 11/11 A3009 RMK A01 T01120109  RH  098%=      5-min Rain = 0
KCH1 101417Z 14003KT 11/11 A3009 RMK A01 T01130109  RH  098%=      5-min Rain = 0
KCH1 101418Z 16003KT 11/11 A3009 RMK A01 T01130109  RH  098%=      5-min Rain = 0
KCH1 101419Z 17004KT 11/11 A3009 RMK A01 T01130109  RH  097%=      5-min Rain = 0
KCH1 101420Z 16004KT 11/11 A3009 RMK A01 T01130108  RH  097%=      5-min Rain = 0
KCH1 101421Z 16004KT 11/11 A3009 RMK A01 T01130107  RH  097%=      5-min Rain = 0
KCH1 101422Z 16004KT 11/11 A3009 RMK A01 T01130108  RH  097%=      5-min Rain = 0
KCH1 101423Z 17003KT 11/11 A3009 RMK A01 T01130108  RH  096%=      5-min Rain = 0
KCH1 101424Z 17005KT 11/11 A3009 RMK A01 T01140108  RH  097%=      5-min Rain = 0
KCH1 101425Z 17004KT 11/11 A3009 RMK A01 T01140108  RH  096%=      5-min Rain = 0
KCH1 101426Z 17002KT 11/11 A3009 RMK A01 T01140108  RH  096%=      5-min Rain = 0
KCH1 101427Z 17003KT 12/11 A3009 RMK A01 T01150110  RH  097%=      5-min Rain = 0
KCH1 101428Z 18003KT 12/11 A3009 RMK A01 T01160111  RH  097%=      5-min Rain = 0
KCH1 101429Z 17003KT 12/11 A3009 RMK A01 T01170114  RH  097%=      5-min Rain = 0
KCH1 101430Z 17002KT 12/12 A3009 RMK A01 T01190115  RH  098%=      5-min Rain = 0
KCH1 101431Z 19004KT 12/11 A3009 RMK A01 T01190114  RH  097%=      5-min Rain = 0
KCH1 101432Z 18004KT 12/11 A3009 RMK A01 T01190113  RH  096%=      5-min Rain = 0
KCH1 101433Z 17004KT 12/11 A3009 RMK A01 T01190113  RH  096%=      5-min Rain = 0
KCH1 101434Z 18004KT 12/11 A3009 RMK A01 T01190113  RH  096%=      5-min Rain = 0
KCH1 101435Z 17003KT 12/11 A3009 RMK A01 T01190113  RH  096%=      5-min Rain = 0
KCH1 101436Z 17004KT 12/12 A3009 RMK A01 T01200115  RH  096%=      5-min Rain = 0
KCH1 101437Z 18003KT 12/11 A3009 RMK A01 T01200114  RH  095%=      5-min Rain = 0
KCH1 101438Z 17003KT 12/12 A3009 RMK A01 T01210115  RH  096%=      5-min Rain = 0
KCH1 101439Z 17003KT 12/12 A3009 RMK A01 T01230118  RH  097%=      5-min Rain = 0
KCH1 101440Z 16003KT 13/12 A3009 RMK A01 T01250119  RH  096%=      5-min Rain = 0
KCH1 101441Z 15004KT 13/12 A3009 RMK A01 T01250118  RH  095%=      5-min Rain = 0
KCH1 101442Z 16004KT 13/12 A3009 RMK A01 T01250116  RH  094%=      5-min Rain = 0
KCH1 101443Z 16005KT 13/12 A3009 RMK A01 T01250116  RH  094%=      5-min Rain = 0
KCH1 101444Z 16004KT 13/12 A3009 RMK A01 T01260116  RH  094%=      5-min Rain = 0
KCH1 101445Z 14004KT 13/12 A3009 RMK A01 T01260115  RH  093%=      5-min Rain = 0
KCH1 101446Z 16005KT 13/12 A3009 RMK A01 T01270117  RH  094%=      5-min Rain = 0
KCH1 101447Z 17005KT 13/12 A3009 RMK A01 T01270116  RH  093%=      5-min Rain = 0
KCH1 101448Z 16005KT 13/12 A3009 RMK A01 T01280116  RH  093%=      5-min Rain = 0
KCH1 101449Z 16004KT 13/12 A3009 RMK A01 T01280116  RH  092%=      5-min Rain = 0
KCH1 101450Z 16004KT 13/12 A3009 RMK A01 T01280116  RH  092%=      5-min Rain = 0
KCH1 101451Z 16004KT 13/12 A3009 RMK A01 T01300118  RH  092%=      5-min Rain = 0
KCH1 101452Z 17004KT 13/12 A3009 RMK A01 T01310118  RH  092%=      5-min Rain = 0
KCH1 101453Z 16004KT 13/12 A3009 RMK A01 T01320120  RH  092%=      5-min Rain = 0
KCH1 101454Z 16004KT 13/12 A3009 RMK A01 T01330120  RH  092%=      5-min Rain = 0
KCH1 101455Z 16003KT 13/12 A3009 RMK A01 T01340120  RH  091%=      5-min Rain = 0
KCH1 101456Z 17003KT 14/12 A3009 RMK A01 T01350122  RH  091%=      5-min Rain = 0
KCH1 101457Z 17004KT 14/12 A3009 RMK A01 T01360122  RH  091%=      5-min Rain = 0
KCH1 101458Z 18004KT 14/12 A3008 RMK A01 T01370120  RH  090%=      5-min Rain = 0
KCH1 101459Z 16005KT 14/12 A3009 RMK A01 T01370120  RH  090%=      5-min Rain = 0
KCH1 101500Z 17005KT 14/12 A3009 RMK A01 T01370120  RH  089%=      5-min Rain = 0
KCH1 101501Z 19004KT 14/12 A3009 RMK A01 T01390122  RH  089%=      5-min Rain = 0
KCH1 101502Z 18004KT 14/12 A3009 RMK A01 T01400122  RH  089%=      5-min Rain = 0
KCH1 101503Z 17004KT 14/12 A3009 RMK A01 T01400120  RH  088%=      5-min Rain = 0
KCH1 101504Z 18003KT 14/12 A3009 RMK A01 T01410123  RH  089%=      5-min Rain = 0
KCH1 101505Z 19005KT 14/12 A3009 RMK A01 T01430123  RH  088%=      5-min Rain = 0
KCH1 101506Z 20005KT 14/12 A3009 RMK A01 T01440123  RH  087%=      5-min Rain = 0
KCH1 101507Z 19006KT 15/12 A3009 RMK A01 T01450122  RH  086%=      5-min Rain = 0
KCH1 101508Z 20006KT 15/12 A3009 RMK A01 T01460120  RH  084%=      5-min Rain = 0
KCH1 101509Z 19007KT 15/12 A3009 RMK A01 T01450118  RH  084%=      5-min Rain = 0
KCH1 101510Z 19005KT 15/12 A3009 RMK A01 T01450118  RH  084%=      5-min Rain = 0
KCH1 101511Z 21008KT 15/12 A3009 RMK A01 T01450119  RH  084%=      5-min Rain = 0
KCH1 101512Z 20007KT 15/12 A3008 RMK A01 T01450118  RH  083%=      5-min Rain = 0
KCH1 101513Z 22005KT 15/12 A3008 RMK A01 T01450117  RH  083%=      5-min Rain = 0
KCH1 101514Z 20007KT 15/12 A3008 RMK A01 T01450119  RH  084%=      5-min Rain = 0
KCH1 101515Z 20007KT 15/12 A3008 RMK A01 T01460117  RH  083%=      5-min Rain = 0
KCH1 101516Z 19005KT 15/12 A3008 RMK A01 T01460119  RH  084%=      5-min Rain = 0
KCH1 101517Z 18004KT 15/12 A3008 RMK A01 T01480121  RH  084%=      5-min Rain = 0
KCH1 101518Z 18006KT 15/12 A3008 RMK A01 T01500122  RH  083%=      5-min Rain = 0
KCH1 101519Z 19007KT 15/12 A3008 RMK A01 T01520122  RH  082%=      5-min Rain = 0
KCH1 101520Z 19006KT 15/12 A3008 RMK A01 T01520120  RH  081%=      5-min Rain = 0
KCH1 101521Z 21006KT 15/12 A3008 RMK A01 T01520119  RH  081%=      5-min Rain = 0
KCH1 101522Z 19006KT 15/12 A3008 RMK A01 T01510120  RH  082%=      5-min Rain = 0
KCH1 101523Z 21007KT 15/12 A3008 RMK A01 T01510120  RH  081%=      5-min Rain = 0
KCH1 101524Z 19006KT 15/12 A3008 RMK A01 T01520119  RH  081%=      5-min Rain = 0
KCH1 101525Z 20005KT 15/12 A3008 RMK A01 T01520119  RH  081%=      5-min Rain = 0
KCH1 101526Z 18006KT 15/12 A3008 RMK A01 T01510118  RH  081%=      5-min Rain = 0
KCH1 101527Z 18005KT 15/12 A3008 RMK A01 T01510120  RH  081%=      5-min Rain = 0
KCH1 101528Z 19007KT 15/12 A3008 RMK A01 T01530120  RH  081%=      5-min Rain = 0
KCH1 101529Z 19005KT 15/12 A3008 RMK A01 T01540119  RH  080%=      5-min Rain = 0
KCH1 101530Z 21004KT 15/12 A3008 RMK A01 T01540121  RH  081%=      5-min Rain = 0
KCH1 101531Z 20004KT 16/12 A3008 RMK A01 T01550121  RH  080%=      5-min Rain = 0
KCH1 101532Z 20006KT 16/12 A3008 RMK A01 T01560121  RH  080%=      5-min Rain = 0
KCH1 101533Z 18006KT 16/12 A3008 RMK A01 T01560120  RH  079%=      5-min Rain = 0
KCH1 101534Z 18006KT 16/12 A3008 RMK A01 T01560120  RH  079%=      5-min Rain = 0
KCH1 101535Z 21005KT 16/12 A3008 RMK A01 T01570122  RH  080%=      5-min Rain = 0
KCH1 101536Z 20005KT 16/12 A3008 RMK A01 T01580121  RH  079%=      5-min Rain = 0
KCH1 101537Z 20004KT 16/12 A3008 RMK A01 T01580121  RH  079%=      5-min Rain = 0
KCH1 101538Z 21004KT 16/12 A3008 RMK A01 T01580122  RH  079%=      5-min Rain = 0
KCH1 101539Z 18006KT 16/12 A3008 RMK A01 T01590121  RH  078%=      5-min Rain = 0
KCH1 101540Z 18006KT 16/12 A3008 RMK A01 T01600122  RH  078%=      5-min Rain = 0
KCH1 101541Z 20005KT 16/12 A3008 RMK A01 T01610123  RH  078%=      5-min Rain = 0
KCH1 101542Z 19006KT 16/12 A3008 RMK A01 T01620123  RH  078%=      5-min Rain = 0
KCH1 101543Z 18006KT 16/12 A3008 RMK A01 T01630123  RH  077%=      5-min Rain = 0
KCH1 101544Z 21004KT 16/12 A3008 RMK A01 T01630122  RH  077%=      5-min Rain = 0
KCH1 101545Z 20004KT 16/12 A3008 RMK A01 T01630124  RH  077%=      5-min Rain = 0
KCH1 101546Z 18006KT 17/12 A3008 RMK A01 T01650123  RH  076%=      5-min Rain = 0
KCH1 101547Z 19009KT 17/12 A3008 RMK A01 T01650122  RH  075%=      5-min Rain = 0
KCH1 101548Z 19007KT 16/12 A3008 RMK A01 T01630120  RH  076%=      5-min Rain = 0
KCH1 101549Z 20006KT 16/12 A3008 RMK A01 T01620119  RH  076%=      5-min Rain = 0
KCH1 101550Z 20007KT 16/12 A3008 RMK A01 T01600121  RH  077%=      5-min Rain = 0
KCH1 101551Z 20009KT 16/12 A3008 RMK A01 T01620121  RH  077%=      5-min Rain = 0
KCH1 101552Z 19008KT 16/12 A3007 RMK A01 T01610120  RH  076%=      5-min Rain = 0
KCH1 101553Z 21007KT 16/12 A3007 RMK A01 T01600119  RH  077%=      5-min Rain = 0
KCH1 101554Z 21006KT 16/12 A3007 RMK A01 T01590120  RH  077%=      5-min Rain = 0
KCH1 101555Z 20005KT 16/12 A3007 RMK A01 T01610123  RH  078%=      5-min Rain = 0
KCH1 101556Z 20006KT 16/12 A3008 RMK A01 T01630121  RH  076%=      5-min Rain = 0
KCH1 101557Z 20005KT 16/12 A3007 RMK A01 T01620120  RH  076%=      5-min Rain = 0
KCH1 101558Z 18008KT 16/12 A3007 RMK A01 T01610120  RH  077%=      5-min Rain = 0
KCH1 101559Z 19006KT 16/12 A3007 RMK A01 T01630122  RH  077%=      5-min Rain = 0
KCH1 101600Z 18007KT 17/12 A3007 RMK A01 T01650123  RH  076%=      5-min Rain = 0
KCH1 101601Z 19007KT 17/12 A3007 RMK A01 T01660122  RH  075%=      5-min Rain = 0
KCH1 101602Z 20007KT 17/12 A3007 RMK A01 T01660123  RH  076%=      5-min Rain = 0
KCH1 101603Z 20008KT 17/12 A3007 RMK A01 T01660121  RH  075%=      5-min Rain = 0
KCH1 101604Z 19009KT 17/12 A3007 RMK A01 T01650122  RH  076%=      5-min Rain = 0
KCH1 101605Z 20009KT 17/12 A3007 RMK A01 T01650122  RH  076%=      5-min Rain = 0
KCH1 101606Z 19006KT 17/12 A3007 RMK A01 T01650122  RH  076%=      5-min Rain = 0
KCH1 101607Z 20006KT 17/12 A3007 RMK A01 T01670124  RH  076%=      5-min Rain = 0
KCH1 101608Z 20006KT 17/12 A3007 RMK A01 T01680124  RH  075%=      5-min Rain = 0
KCH1 101609Z 20006KT 17/12 A3007 RMK A01 T01680124  RH  075%=      5-min Rain = 0
KCH1 101610Z 20006KT 17/12 A3007 RMK A01 T01690124  RH  075%=      5-min Rain = 0
KCH1 101611Z 18006KT 17/12 A3007 RMK A01 T01700124  RH  074%=      5-min Rain = 0
KCH1 101612Z 18004KT 17/13 A3007 RMK A01 T01710125  RH  074%=      5-min Rain = 0
KCH1 101613Z 19007KT 17/12 A3007 RMK A01 T01730124  RH  073%=      5-min Rain = 0
KCH1 101614Z 18008KT 17/12 A3007 RMK A01 T01730124  RH  073%=      5-min Rain = 0
KCH1 101615Z 18006KT 17/12 A3007 RMK A01 T01710124  RH  074%=      5-min Rain = 0
KCH1 101616Z 19007KT 17/12 A3007 RMK A01 T01720124  RH  074%=      5-min Rain = 0
KCH1 101617Z 20005KT 17/13 A3007 RMK A01 T01730127  RH  074%=      5-min Rain = 0
KCH1 101618Z 18007KT 18/13 A3007 RMK A01 T01760126  RH  073%=      5-min Rain = 0
KCH1 101619Z 20005KT 18/13 A3007 RMK A01 T01770126  RH  072%=      5-min Rain = 0
KCH1 101620Z 20005KT 18/13 A3007 RMK A01 T01770126  RH  072%=      5-min Rain = 0
KCH1 101621Z 20005KT 18/13 A3007 RMK A01 T01760125  RH  072%=      5-min Rain = 0
KCH1 101622Z 18006KT 18/13 A3007 RMK A01 T01750126  RH  073%=      5-min Rain = 0
KCH1 101623Z 19006KT 18/13 A3007 RMK A01 T01760126  RH  072%=      5-min Rain = 0
KCH1 101624Z 18007KT 18/13 A3007 RMK A01 T01780126  RH  072%=      5-min Rain = 0
KCH1 101625Z 18007KT 18/13 A3006 RMK A01 T01780126  RH  071%=      5-min Rain = 0
KCH1 101626Z 21005KT 18/13 A3006 RMK A01 T01800126  RH  071%=      5-min Rain = 0
KCH1 101627Z 20007KT 18/13 A3006 RMK A01 T01810126  RH  071%=      5-min Rain = 0
KCH1 101628Z 20007KT 18/13 A3006 RMK A01 T01800127  RH  071%=      5-min Rain = 0
KCH1 101629Z 18006KT 18/13 A3006 RMK A01 T01800127  RH  071%=      5-min Rain = 0
KCH1 101630Z 21006KT 18/13 A3006 RMK A01 T01820126  RH  070%=      5-min Rain = 0
KCH1 101631Z 21007KT 18/13 A3006 RMK A01 T01820128  RH  070%=      5-min Rain = 0
KCH1 101632Z 20008KT 18/13 A3006 RMK A01 T01830127  RH  070%=      5-min Rain = 0
KCH1 101633Z 21007KT 18/13 A3006 RMK A01 T01840127  RH  069%=      5-min Rain = 0
KCH1 101634Z 19005KT 18/13 A3006 RMK A01 T01840128  RH  070%=      5-min Rain = 0
KCH1 101635Z 19007KT 19/13 A3006 RMK A01 T01870129  RH  069%=      5-min Rain = 0
KCH1 101636Z 19008KT 19/13 A3006 RMK A01 T01880128  RH  068%=      5-min Rain = 0
KCH1 101637Z 19008KT 19/13 A3006 RMK A01 T01870127  RH  068%=      5-min Rain = 0
KCH1 101638Z 19008KT 19/13 A3006 RMK A01 T01870129  RH  069%=      5-min Rain = 0
KCH1 101639Z 19009KT 19/13 A3006 RMK A01 T01890129  RH  068%=      5-min Rain = 0
KCH1 101640Z 19010KT 19/13 A3006 RMK A01 T01910128  RH  067%=      5-min Rain = 0
KCH1 101641Z 18008KT 19/13 A3006 RMK A01 T01910129  RH  067%=      5-min Rain = 0
KCH1 101642Z 19009KT 19/13 A3006 RMK A01 T01910129  RH  067%=      5-min Rain = 0
KCH1 101643Z 18007KT 19/13 A3006 RMK A01 T01910128  RH  067%=      5-min Rain = 0
KCH1 101644Z 18009KT 19/13 A3006 RMK A01 T01920129  RH  067%=      5-min Rain = 0
KCH1 101645Z 19011KT 19/13 A3006 RMK A01 T01920128  RH  067%=      5-min Rain = 0
KCH1 101646Z 20011KT 19/13 A3006 RMK A01 T01910128  RH  067%=      5-min Rain = 0
KCH1 101647Z 18009KT 19/13 A3006 RMK A01 T01900128  RH  067%=      5-min Rain = 0
KCH1 101648Z 19010KT 19/13 A3005 RMK A01 T01910129  RH  067%=      5-min Rain = 0
KCH1 101649Z 18010KT 19/13 A3005 RMK A01 T01920129  RH  067%=      5-min Rain = 0
KCH1 101650Z 18008KT 19/13 A3005 RMK A01 T01910128  RH  067%=      5-min Rain = 0
KCH1 101651Z 19008KT 19/13 A3005 RMK A01 T01930131  RH  067%=      5-min Rain = 0
KCH1 101652Z 18010KT 20/13 A3005 RMK A01 T01950130  RH  066%=      5-min Rain = 0
KCH1 101653Z 19008KT 20/13 A3005 RMK A01 T01950129  RH  066%=      5-min Rain = 0
KCH1 101654Z 20007KT 20/13 A3005 RMK A01 T01950131  RH  067%=      5-min Rain = 0
KCH1 101655Z 21009KT 20/13 A3005 RMK A01 T01980132  RH  066%=      5-min Rain = 0
KCH1 101656Z 19010KT 20/13 A3005 RMK A01 T01980131  RH  065%=      5-min Rain = 0
KCH1 101657Z 21012KT 20/13 A3005 RMK A01 T01980130  RH  065%=      5-min Rain = 0
KCH1 101658Z 20012KT 20/13 A3005 RMK A01 T01960130  RH  065%=      5-min Rain = 0
KCH1 101659Z 20012KT 20/13 A3005 RMK A01 T01960129  RH  065%=      5-min Rain = 0
KCH1 101700Z 21011KT 20/13 A3005 RMK A01 T01950130  RH  066%=      5-min Rain = 0
KCH1 101701Z 21011KT 19/13 A3005 RMK A01 T01940129  RH  066%=      5-min Rain = 0
KCH1 101702Z 21011KT 19/13 A3005 RMK A01 T01930130  RH  067%=      5-min Rain = 0
KCH1 101703Z 21010KT 19/13 A3005 RMK A01 T01930129  RH  066%=      5-min Rain = 0
KCH1 101704Z 23010G15KT 19/13 A3005 RMK A01 T01930130  RH  067%=      5-min Rain = 0
KCH1 101705Z 22008KT 19/13 A3005 RMK A01 T01940131  RH  067%=      5-min Rain = 0
KCH1 101706Z 21012KT 20/13 A3005 RMK A01 T01960131  RH  066%=      5-min Rain = 0
KCH1 101707Z 22009KT 20/13 A3005 RMK A01 T01960130  RH  065%=      5-min Rain = 0
KCH1 101708Z 22007KT 19/13 A3005 RMK A01 T01940130  RH  066%=      5-min Rain = 0
KCH1 101709Z 23008KT 20/13 A3005 RMK A01 T01950131  RH  066%=      5-min Rain = 0
KCH1 101710Z 22007KT 20/13 A3005 RMK A01 T01960131  RH  066%=      5-min Rain = 0
KCH1 101711Z 23010KT 20/13 A3005 RMK A01 T01980131  RH  065%=      5-min Rain = 0
KCH1 101712Z 24009KT 20/13 A3005 RMK A01 T01970131  RH  065%=      5-min Rain = 0
KCH1 101713Z 24007KT 20/13 A3005 RMK A01 T01970130  RH  065%=      5-min Rain = 0
KCH1 101714Z 23006KT 20/13 A3005 RMK A01 T01970131  RH  066%=      5-min Rain = 0
KCH1 101715Z 22010KT 20/13 A3005 RMK A01 T01980132  RH  066%=      5-min Rain = 0
KCH1 101716Z 20009KT 20/13 A3005 RMK A01 T02000132  RH  065%=      5-min Rain = 0
KCH1 101717Z 20007KT 20/13 A3005 RMK A01 T02010133  RH  065%=      5-min Rain = 0
KCH1 101718Z 20008KT 20/13 A3005 RMK A01 T02030133  RH  064%=      5-min Rain = 0
KCH1 101719Z 20007KT 20/13 A3004 RMK A01 T02040132  RH  063%=      5-min Rain = 0
KCH1 101720Z 20008KT 21/13 A3004 RMK A01 T02050132  RH  063%=      5-min Rain = 0
KCH1 101721Z 19010KT 20/13 A3004 RMK A01 T02040132  RH  063%=      5-min Rain = 0
KCH1 101722Z 19007KT 20/13 A3004 RMK A01 T02040132  RH  063%=      5-min Rain = 0
KCH1 101723Z 22008KT 20/13 A3004 RMK A01 T02040132  RH  064%=      5-min Rain = 0
KCH1 101724Z 22007KT 21/13 A3004 RMK A01 T02050134  RH  064%=      5-min Rain = 0
KCH1 101725Z 21009KT 21/13 A3004 RMK A01 T02070134  RH  063%=      5-min Rain = 0
KCH1 101726Z 20009KT 21/13 A3004 RMK A01 T02070133  RH  062%=      5-min Rain = 0
KCH1 101727Z 21007KT 21/14 A3004 RMK A01 T02060135  RH  063%=      5-min Rain = 0
KCH1 101728Z 22006KT 21/14 A3004 RMK A01 T02080136  RH  063%=      5-min Rain = 0
KCH1 101729Z 20009KT 21/13 A3004 RMK A01 T02100134  RH  062%=      5-min Rain = 0
KCH1 101730Z 22006KT 21/14 A3004 RMK A01 T02100135  RH  062%=      5-min Rain = 0
KCH1 101731Z 21009KT 21/14 A3004 RMK A01 T02110135  RH  062%=      5-min Rain = 0
KCH1 101732Z 23009KT 21/13 A3004 RMK A01 T02110134  RH  061%=      5-min Rain = 0
KCH1 101733Z 23011KT 21/13 A3004 RMK A01 T02110134  RH  061%=      5-min Rain = 0
KCH1 101734Z 21009KT 21/13 A3003 RMK A01 T02090134  RH  062%=      5-min Rain = 0
KCH1 101735Z 21008KT 21/13 A3003 RMK A01 T02080134  RH  063%=      5-min Rain = 0
KCH1 101736Z 20008KT 21/14 A3003 RMK A01 T02080135  RH  063%=      5-min Rain = 0
KCH1 101737Z 21007KT 21/14 A3003 RMK A01 T02110135  RH  062%=      5-min Rain = 0
KCH1 101738Z 18009KT 21/13 A3003 RMK A01 T02110134  RH  061%=      5-min Rain = 0
KCH1 101739Z 20007KT 21/14 A3003 RMK A01 T02110135  RH  062%=      5-min Rain = 0
KCH1 101740Z 20008KT 21/13 A3003 RMK A01 T02120134  RH  061%=      5-min Rain = 0
KCH1 101741Z 23008KT 21/14 A3003 RMK A01 T02120135  RH  061%=      5-min Rain = 0
KCH1 101742Z 22009KT 21/14 A3003 RMK A01 T02110135  RH  062%=      5-min Rain = 0
KCH1 101743Z 22009KT 21/14 A3003 RMK A01 T02110135  RH  062%=      5-min Rain = 0
KCH1 101744Z 21007KT 21/14 A3003 RMK A01 T02120137  RH  062%=      5-min Rain = 0
KCH1 101745Z 20008KT 21/14 A3002 RMK A01 T02130136  RH  061%=      5-min Rain = 0
KCH1 101746Z 18010KT 21/14 A3002 RMK A01 T02140135  RH  061%=      5-min Rain = 0
KCH1 101747Z 20010KT 21/14 A3002 RMK A01 T02140135  RH  061%=      5-min Rain = 0
KCH1 101748Z 20009KT 21/14 A3002 RMK A01 T02140135  RH  061%=      5-min Rain = 0
KCH1 101749Z 20006KT 21/14 A3002 RMK A01 T02130135  RH  061%=      5-min Rain = 0
KCH1 101750Z 19005KT 21/14 A3002 RMK A01 T02120136  RH  062%=      5-min Rain = 0
KCH1 101751Z 19007KT 21/14 A3002 RMK A01 T02140138  RH  062%=      5-min Rain = 0
KCH1 101752Z 19007KT 22/14 A3002 RMK A01 T02170136  RH  060%=      5-min Rain = 0
KCH1 101753Z 18007KT 22/14 A3002 RMK A01 T02170136  RH  060%=      5-min Rain = 0
KCH1 101754Z 19011KT 22/14 A3001 RMK A01 T02180138  RH  060%=      5-min Rain = 0
KCH1 101755Z 19009KT 22/14 A3001 RMK A01 T02190136  RH  059%=      5-min Rain = 0
KCH1 101756Z 19009KT 22/14 A3001 RMK A01 T02180136  RH  059%=      5-min Rain = 0
KCH1 101757Z 19009KT 22/14 A3001 RMK A01 T02180136  RH  060%=      5-min Rain = 0
KCH1 101758Z 19005KT 22/14 A3001 RMK A01 T02180138  RH  060%=      5-min Rain = 0
KCH1 101759Z 18007KT 22/14 A3001 RMK A01 T02210138  RH  059%=      5-min Rain = 0
KCH1 101800Z 18007G12KT 22/14 A3001 RMK A01 T02220138  RH  059%=      5-min Rain = 0
KCH1 101801Z 17011KT 22/14 A3001 RMK A01 T02230137  RH  058%=      5-min Rain = 0
KCH1 101802Z 20009KT 22/14 A3001 RMK A01 T02230138  RH  058%=      5-min Rain = 0
KCH1 101803Z 19010KT 22/14 A3001 RMK A01 T02240139  RH  059%=      5-min Rain = 0
KCH1 101804Z 19009KT 23/14 A3001 RMK A01 T02250138  RH  058%=      5-min Rain = 0
KCH1 101805Z 21009KT 23/14 A3001 RMK A01 T02250139  RH  058%=      5-min Rain = 0
KCH1 101806Z 19008KT 22/14 A3001 RMK A01 T02230138  RH  059%=      5-min Rain = 0
KCH1 101807Z 22009KT 22/14 A30 RMK A01 T02240138  RH  058%=      5-min Rain = 0
KCH1 101808Z 22005KT 22/14 A30 RMK A01 T02230138  RH  058%=      5-min Rain = 0
KCH1 101809Z 18010G17KT 22/14 A30 RMK A01 T02240139  RH  059%=      5-min Rain = 0
KCH1 101810Z 21009KT 23/14 A30 RMK A01 T02270140  RH  058%=      5-min Rain = 0
KCH1 101811Z 21009G14KT 23/14 A30 RMK A01 T02300142  RH  057%=      5-min Rain = 0
KCH1 101812Z 20011KT 23/14 A30 RMK A01 T02300139  RH  056%=      5-min Rain = 0
KCH1 101813Z 20012KT 23/14 A30 RMK A01 T02270138  RH  057%=      5-min Rain = 0
KCH1 101814Z 20011KT 23/14 A30 RMK A01 T02260138  RH  058%=      5-min Rain = 0
KCH1 101815Z 20011KT 23/14 A30 RMK A01 T02280139  RH  057%=      5-min Rain = 0
KCH1 101816Z 19013KT 23/14 A30 RMK A01 T02270137  RH  057%=      5-min Rain = 0
KCH1 101817Z 19008G13KT 23/14 A30 RMK A01 T02250138  RH  058%=      5-min Rain = 0
KCH1 101818Z 18010KT 23/14 A30 RMK A01 T02270140  RH  058%=      5-min Rain = 0
KCH1 101819Z 18011KT 23/14 A30 RMK A01 T02290139  RH  057%=      5-min Rain = 0
KCH1 101820Z 19012KT 23/14 A30 RMK A01 T02300139  RH  057%=      5-min Rain = 0
KCH1 101821Z 22013KT 23/14 A30 RMK A01 T02280139  RH  057%=      5-min Rain = 0
KCH1 101822Z 21010KT 23/14 A30 RMK A01 T02250138  RH  058%=      5-min Rain = 0
KCH1 101823Z 22010KT 22/14 A30 RMK A01 T02240139  RH  059%=      5-min Rain = 0
KCH1 101824Z 21010KT 23/14 A30 RMK A01 T02250140  RH  059%=      5-min Rain = 0
KCH1 101825Z 20010KT 23/14 A30 RMK A01 T02260139  RH  058%=      5-min Rain = 0
KCH1 101826Z 19010KT 23/14 A30 RMK A01 T02260139  RH  058%=      5-min Rain = 0
KCH1 101827Z 19010G15KT 23/14 A2999 RMK A01 T02260139  RH  058%=      5-min Rain = 0
KCH1 101828Z 20012KT 23/14 A2999 RMK A01 T02270139  RH  058%=      5-min Rain = 0
KCH1 101829Z 21012KT 23/14 A2999 RMK A01 T02280140  RH  058%=      5-min Rain = 0
KCH1 101830Z 21011KT 23/14 A2999 RMK A01 T02260139  RH  058%=      5-min Rain = 0
KCH1 101831Z 21008G13KT 23/14 A2999 RMK A01 T02250140  RH  058%=      5-min Rain = 0
KCH1 101832Z 20008KT 23/14 A2999 RMK A01 T02260140  RH  058%=      5-min Rain = 0
KCH1 101833Z 21011KT 23/14 A2999 RMK A01 T02260140  RH  058%=      5-min Rain = 0
KCH1 101834Z 22011KT 23/14 A2999 RMK A01 T02260139  RH  058%=      5-min Rain = 0
KCH1 101835Z 21011KT 23/14 A2999 RMK A01 T02250139  RH  058%=      5-min Rain = 0
KCH1 101836Z 20010KT 23/14 A2999 RMK A01 T02250139  RH  058%=      5-min Rain = 0
KCH1 101837Z 21012KT 23/14 A2999 RMK A01 T02250139  RH  058%=      5-min Rain = 0
KCH1 101838Z 22008KT 23/14 A2999 RMK A01 T02250140  RH  059%=      5-min Rain = 0
KCH1 101839Z 20007KT 23/14 A2999 RMK A01 T02260141  RH  059%=      5-min Rain = 0
KCH1 101840Z 21008KT 23/14 A2998 RMK A01 T02270140  RH  058%=      5-min Rain = 0
KCH1 101841Z 20009KT 23/14 A2998 RMK A01 T02270140  RH  058%=      5-min Rain = 0
KCH1 101842Z 20013KT 23/14 A2998 RMK A01 T02280139  RH  057%=      5-min Rain = 0
KCH1 101843Z 19012KT 23/14 A2998 RMK A01 T02260139  RH  058%=      5-min Rain = 0
KCH1 101844Z 21010KT 23/14 A2998 RMK A01 T02270140  RH  058%=      5-min Rain = 0
KCH1 101845Z 21008KT 23/14 A2998 RMK A01 T02280141  RH  058%=      5-min Rain = 0
KCH1 101846Z 22007KT 23/14 A2998 RMK A01 T02290141  RH  058%=      5-min Rain = 0
KCH1 101847Z 22010KT 23/14 A2998 RMK A01 T02300141  RH  057%=      5-min Rain = 0
KCH1 101848Z 22009KT 23/14 A2998 RMK A01 T02300142  RH  057%=      5-min Rain = 0
KCH1 101849Z 20010KT 23/14 A2998 RMK A01 T02300142  RH  057%=      5-min Rain = 0
KCH1 101850Z 19009KT 23/14 A2998 RMK A01 T02300140  RH  057%=      5-min Rain = 0
KCH1 101851Z 21010KT 23/14 A2998 RMK A01 T02300141  RH  057%=      5-min Rain = 0
KCH1 101852Z 20010KT 23/14 A2997 RMK A01 T02300141  RH  057%=      5-min Rain = 0
KCH1 101853Z 22009G15KT 23/14 A2997 RMK A01 T02300142  RH  058%=      5-min Rain = 0
KCH1 101854Z 22011KT 23/14 A2997 RMK A01 T02320142  RH  057%=      5-min Rain = 0
KCH1 101855Z 22009KT 23/14 A2997 RMK A01 T02310142  RH  057%=      5-min Rain = 0
KCH1 101856Z 22005KT 23/14 A2997 RMK A01 T02320142  RH  057%=      5-min Rain = 0
KCH1 101857Z 19009KT 23/14 A2997 RMK A01 T02330143  RH  057%=      5-min Rain = 0
KCH1 101858Z 21007KT 24/14 A2997 RMK A01 T02350143  RH  056%=      5-min Rain = 0
KCH1 101859Z 20009G16KT 24/14 A2997 RMK A01 T02360143  RH  056%=      5-min Rain = 0
KCH1 101900Z 20010KT 24/14 A2997 RMK A01 T02350142  RH  056%=      5-min Rain = 0
KCH1 101901Z 18010KT 23/14 A2997 RMK A01 T02340142  RH  056%=      5-min Rain = 0
KCH1 101902Z 20009KT 23/14 A2997 RMK A01 T02340142  RH  056%=      5-min Rain = 0
KCH1 101903Z 21010KT 24/14 A2997 RMK A01 T02350141  RH  056%=      5-min Rain = 0
KCH1 101904Z 22009KT 23/14 A2997 RMK A01 T02340143  RH  057%=      5-min Rain = 0
KCH1 101905Z 20007KT 23/14 A2997 RMK A01 T02340142  RH  056%=      5-min Rain = 0
KCH1 101906Z 20010G15KT 24/14 A2997 RMK A01 T02350142  RH  056%=      5-min Rain = 0
KCH1 101907Z 21007KT 24/14 A2996 RMK A01 T02360143  RH  056%=      5-min Rain = 0
KCH1 101908Z 20008G14KT 24/14 A2996 RMK A01 T02370143  RH  056%=      5-min Rain = 0
KCH1 101909Z 20015KT 24/14 A2996 RMK A01 T02370142  RH  055%=      5-min Rain = 0
KCH1 101910Z 20012KT 24/14 A2996 RMK A01 T02360141  RH  055%=      5-min Rain = 0
KCH1 101911Z 19011KT 24/14 A2996 RMK A01 T02350140  RH  055%=      5-min Rain = 0
KCH1 101912Z 20007KT 23/14 A2996 RMK A01 T02340142  RH  056%=      5-min Rain = 0
KCH1 101913Z 22008KT 24/14 A2996 RMK A01 T02360144  RH  056%=      5-min Rain = 0
KCH1 101914Z 20009KT 24/14 A2996 RMK A01 T02370144  RH  056%=      5-min Rain = 0
KCH1 101915Z 20010KT 24/14 A2996 RMK A01 T02390144  RH  055%=      5-min Rain = 0
KCH1 101916Z 22009KT 24/14 A2996 RMK A01 T02400144  RH  055%=      5-min Rain = 0
KCH1 101917Z 22010KT 24/14 A2996 RMK A01 T02390143  RH  055%=      5-min Rain = 0
KCH1 101918Z 22010KT 24/14 A2996 RMK A01 T02370143  RH  056%=      5-min Rain = 0
KCH1 101919Z 22010G16KT 24/14 A2996 RMK A01 T02360143  RH  056%=      5-min Rain = 0
KCH1 101920Z 22010KT 24/14 A2996 RMK A01 T02350142  RH  056%=      5-min Rain = 0
KCH1 101921Z 22008G13KT 23/14 A2996 RMK A01 T02330142  RH  056%=      5-min Rain = 0
KCH1 101922Z 22007KT 23/14 A2995 RMK A01 T02320142  RH  057%=      5-min Rain = 0
KCH1 101923Z 21005KT 23/14 A2996 RMK A01 T02330144  RH  058%=      5-min Rain = 0
KCH1 101924Z 21010KT 24/14 A2995 RMK A01 T02350144  RH  056%=      5-min Rain = 0
KCH1 101925Z 20010KT 24/14 A2995 RMK A01 T02360143  RH  056%=      5-min Rain = 0
KCH1 101926Z 20008KT 24/14 A2995 RMK A01 T02360143  RH  056%=      5-min Rain = 0
KCH1 101927Z 21005KT 24/14 A2995 RMK A01 T02370144  RH  056%=      5-min Rain = 0
KCH1 101928Z 20010KT 24/14 A2995 RMK A01 T02370143  RH  056%=      5-min Rain = 0
KCH1 101929Z 20009KT 24/14 A2995 RMK A01 T02360142  RH  056%=      5-min Rain = 0
KCH1 101930Z 21008KT 24/14 A2995 RMK A01 T02350143  RH  056%=      5-min Rain = 0
KCH1 101931Z 21009KT 23/14 A2995 RMK A01 T02340143  RH  056%=      5-min Rain = 0
KCH1 101932Z 21008G13KT 23/14 A2995 RMK A01 T02340143  RH  057%=      5-min Rain = 0
KCH1 101933Z 22008KT 24/14 A2995 RMK A01 T02350144  RH  057%=      5-min Rain = 0
KCH1 101934Z 22015KT 24/14 A2995 RMK A01 T02360143  RH  056%=      5-min Rain = 0
KCH1 101935Z 22011G16KT 23/14 A2995 RMK A01 T02340142  RH  056%=      5-min Rain = 0
KCH1 101936Z 23012G19KT 23/14 A2995 RMK A01 T02330142  RH  057%=      5-min Rain = 0
KCH1 101937Z 21010G15KT 23/14 A2995 RMK A01 T02320141  RH  057%=      5-min Rain = 0
KCH1 101938Z 21007KT 23/14 A2995 RMK A01 T02320143  RH  057%=      5-min Rain = 0
KCH1 101939Z 22008G14KT 23/14 A2995 RMK A01 T02340144  RH  057%=      5-min Rain = 0
KCH1 101940Z 21011KT 23/14 A2995 RMK A01 T02340142  RH  056%=      5-min Rain = 0
KCH1 101941Z 22008KT 23/14 A2995 RMK A01 T02340143  RH  056%=      5-min Rain = 0
KCH1 101942Z 21011G16KT 23/14 A2995 RMK A01 T02340143  RH  057%=      5-min Rain = 0
KCH1 101943Z 20009G15KT 23/14 A2995 RMK A01 T02340143  RH  057%=      5-min Rain = 0
KCH1 101944Z 21009G14KT 23/14 A2995 RMK A01 T02340144  RH  057%=      5-min Rain = 0
KCH1 101945Z 21010KT 23/14 A2995 RMK A01 T02340143  RH  057%=      5-min Rain = 0
KCH1 101946Z 22011KT 23/14 A2995 RMK A01 T02340143  RH  057%=      5-min Rain = 0
KCH1 101947Z 21011KT 23/14 A2995 RMK A01 T02330142  RH  057%=      5-min Rain = 0
KCH1 101948Z 22012KT 23/14 A2995 RMK A01 T02320143  RH  057%=      5-min Rain = 0
KCH1 101949Z 22010KT 23/14 A2994 RMK A01 T02320143  RH  057%=      5-min Rain = 0
KCH1 101950Z 22010KT 23/14 A2994 RMK A01 T02320142  RH  057%=      5-min Rain = 0
KCH1 101951Z 20009KT 23/14 A2994 RMK A01 T02320143  RH  057%=      5-min Rain = 0
KCH1 101952Z 21010G18KT 23/14 A2994 RMK A01 T02320143  RH  057%=      5-min Rain = 0
KCH1 101953Z 21014KT 23/14 A2994 RMK A01 T02330143  RH  057%=      5-min Rain = 0
KCH1 101954Z 21009KT 23/14 A2994 RMK A01 T02330143  RH  057%=      5-min Rain = 0
KCH1 101955Z 22011KT 23/14 A2994 RMK A01 T02330143  RH  057%=      5-min Rain = 0
KCH1 101956Z 22009KT 23/14 A2994 RMK A01 T02330143  RH  057%=      5-min Rain = 0
KCH1 101957Z 22010G15KT 23/14 A2994 RMK A01 T02330143  RH  057%=      5-min Rain = 0
KCH1 101958Z 22009G17KT 23/14 A2994 RMK A01 T02330144  RH  057%=      5-min Rain = 0
KCH1 101959Z 21014KT 23/14 A2994 RMK A01 T02330143  RH  057%=      5-min Rain = 0
KCH1 102000Z 20011KT 23/14 A2994 RMK A01 T02330143  RH  057%=      5-min Rain = 0
KCH1 102001Z 21013KT 23/14 A2994 RMK A01 T02330143  RH  057%=      5-min Rain = 0
KCH1 102002Z 21011KT 23/14 A2994 RMK A01 T02330143  RH  057%=      5-min Rain = 0
KCH1 102003Z 21010KT 23/14 A2994 RMK A01 T02330143  RH  057%=      5-min Rain = 0
KCH1 102004Z 21008G14KT 23/14 A2994 RMK A01 T02330144  RH  057%=      5-min Rain = 0
KCH1 102005Z 21011KT 23/14 A2994 RMK A01 T02330143  RH  057%=      5-min Rain = 0
KCH1 102006Z 21009KT 23/14 A2994 RMK A01 T02340144  RH  057%=      5-min Rain = 0
KCH1 102007Z 20011G18KT 24/14 A2994 RMK A01 T02350144  RH  057%=      5-min Rain = 0
KCH1 102008Z 20012G17KT 24/14 A2994 RMK A01 T02360144  RH  056%=      5-min Rain = 0
KCH1 102009Z 20011G16KT 24/14 A2994 RMK A01 T02360143  RH  056%=      5-min Rain = 0
KCH1 102010Z 21009KT 24/14 A2994 RMK A01 T02360144  RH  056%=      5-min Rain = 0
KCH1 102011Z 21011KT 24/14 A2993 RMK A01 T02360144  RH  056%=      5-min Rain = 0
KCH1 102012Z 21010KT 24/14 A2993 RMK A01 T02370144  RH  056%=      5-min Rain = 0
KCH1 102013Z 22010KT 24/14 A2993 RMK A01 T02370144  RH  056%=      5-min Rain = 0
KCH1 102014Z 19007KT 24/15 A2993 RMK A01 T02380145  RH  056%=      5-min Rain = 0
KCH1 102015Z 21007G12KT 24/15 A2993 RMK A01 T02390146  RH  056%=      5-min Rain = 0
KCH1 102016Z 22011G16KT 24/15 A2993 RMK A01 T02410147  RH  056%=      5-min Rain = 0
KCH1 102017Z 22012KT 24/14 A2993 RMK A01 T02420144  RH  054%=      5-min Rain = 0
KCH1 102018Z 22011KT 24/14 A2993 RMK A01 T02400144  RH  055%=      5-min Rain = 0
KCH1 102019Z 21008KT 24/14 A2993 RMK A01 T02390144  RH  055%=      5-min Rain = 0
KCH1 102020Z 21009KT 24/15 A2993 RMK A01 T02400145  RH  055%=      5-min Rain = 0
KCH1 102021Z 22009KT 24/15 A2993 RMK A01 T02420146  RH  055%=      5-min Rain = 0
KCH1 102022Z 21012KT 24/15 A2993 RMK A01 T02430145  RH  054%=      5-min Rain = 0
KCH1 102023Z 22011KT 24/15 A2993 RMK A01 T02420145  RH  054%=      5-min Rain = 0
KCH1 102024Z 21007G12KT 24/15 A2993 RMK A01 T02420145  RH  055%=      5-min Rain = 0
KCH1 102025Z 22011G17KT 24/15 A2993 RMK A01 T02430146  RH  055%=      5-min Rain = 0
KCH1 102026Z 20012G17KT 24/15 A2993 RMK A01 T02430145  RH  054%=      5-min Rain = 0
KCH1 102027Z 19010KT 24/15 A2993 RMK A01 T02410145  RH  055%=      5-min Rain = 0
KCH1 102028Z 19014KT 24/15 A2993 RMK A01 T02400145  RH  055%=      5-min Rain = 0
KCH1 102029Z 19012KT 24/14 A2993 RMK A01 T02390144  RH  055%=      5-min Rain = 0
KCH1 102030Z 20010KT 24/15 A2993 RMK A01 T02380145  RH  056%=      5-min Rain = 0
KCH1 102031Z 20009KT 24/15 A2993 RMK A01 T02380145  RH  056%=      5-min Rain = 0
KCH1 102032Z 20013G18KT 24/15 A2993 RMK A01 T02380145  RH  056%=      5-min Rain = 0
KCH1 102033Z 19011G16KT 24/14 A2993 RMK A01 T02360144  RH  056%=      5-min Rain = 0
KCH1 102034Z 19010KT 23/14 A2993 RMK A01 T02340144  RH  057%=      5-min Rain = 0
KCH1 102035Z 20011KT 23/14 A2993 RMK A01 T02340144  RH  057%=      5-min Rain = 0
KCH1 102036Z 22009KT 23/15 A2993 RMK A01 T02340145  RH  057%=      5-min Rain = 0
KCH1 102037Z 21012KT 23/14 A2993 RMK A01 T02330144  RH  057%=      5-min Rain = 0
KCH1 102038Z 20009KT 23/14 A2993 RMK A01 T02310143  RH  057%=      5-min Rain = 0
KCH1 102039Z 19011G16KT 23/14 A2993 RMK A01 T02300144  RH  058%=      5-min Rain = 0
KCH1 102040Z 19012KT 23/14 A2993 RMK A01 T02300144  RH  058%=      5-min Rain = 0
KCH1 102041Z 19011G18KT 23/14 A2993 RMK A01 T02300143  RH  058%=      5-min Rain = 0
KCH1 102042Z 21009KT 23/14 A2993 RMK A01 T02300144  RH  058%=      5-min Rain = 0
KCH1 102043Z 20011KT 23/14 A2993 RMK A01 T02310144  RH  058%=      5-min Rain = 0
KCH1 102044Z 21012KT 23/14 A2993 RMK A01 T02310143  RH  058%=      5-min Rain = 0
KCH1 102045Z 22013KT 23/14 A2993 RMK A01 T02300142  RH  058%=      5-min Rain = 0
KCH1 102046Z 22010KT 23/14 A2993 RMK A01 T02290142  RH  058%=      5-min Rain = 0
KCH1 102047Z 20010KT 23/14 A2992 RMK A01 T02280143  RH  058%=      5-min Rain = 0
KCH1 102048Z 21008G13KT 23/14 A2992 RMK A01 T02290143  RH  058%=      5-min Rain = 0
KCH1 102049Z 21009KT 23/14 A2992 RMK A01 T02300143  RH  058%=      5-min Rain = 0
KCH1 102050Z 21007KT 23/14 A2992 RMK A01 T02300143  RH  058%=      5-min Rain = 0
KCH1 102051Z 21007G12KT 23/14 A2992 RMK A01 T02300143  RH  058%=      5-min Rain = 0
KCH1 102052Z 21009KT 23/14 A2992 RMK A01 T02310143  RH  058%=      5-min Rain = 0
KCH1 102053Z 21009KT 23/14 A2992 RMK A01 T02310144  RH  058%=      5-min Rain = 0
KCH1 102054Z 21007KT 23/14 A2992 RMK A01 T02320144  RH  058%=      5-min Rain = 0
KCH1 102055Z 18009KT 23/14 A2992 RMK A01 T02330144  RH  057%=      5-min Rain = 0
KCH1 102056Z 19007KT 23/14 A2992 RMK A01 T02340144  RH  057%=      5-min Rain = 0
KCH1 102057Z 19009KT 24/15 A2992 RMK A01 T02360145  RH  056%=      5-min Rain = 0
KCH1 102058Z 20008KT 24/14 A2992 RMK A01 T02370144  RH  056%=      5-min Rain = 0
KCH1 102059Z 19009G15KT 24/15 A2992 RMK A01 T02360145  RH  057%=      5-min Rain = 0
KCH1 102100Z 19011KT 24/14 A2992 RMK A01 T02360144  RH  056%=      5-min Rain = 0
KCH1 102101Z 20009KT 24/15 A2992 RMK A01 T02350145  RH  057%=      5-min Rain = 0
KCH1 102102Z 19009KT 24/14 A2992 RMK A01 T02350144  RH  057%=      5-min Rain = 0
KCH1 102103Z 18009KT 23/14 A2992 RMK A01 T02340144  RH  057%=      5-min Rain = 0
KCH1 102104Z 20010KT 24/14 A2992 RMK A01 T02350144  RH  056%=      5-min Rain = 0
KCH1 102105Z 22008KT 24/15 A2992 RMK A01 T02350145  RH  057%=      5-min Rain = 0
KCH1 102106Z 22007KT 24/15 A2992 RMK A01 T02350146  RH  057%=      5-min Rain = 0
KCH1 102107Z 20007KT 24/15 A2992 RMK A01 T02360146  RH  057%=      5-min Rain = 0
KCH1 102108Z 20006KT 24/15 A2992 RMK A01 T02360146  RH  057%=      5-min Rain = 0
KCH1 102109Z 21009KT 24/15 A2992 RMK A01 T02360146  RH  057%=      5-min Rain = 0
KCH1 102110Z 20008KT 24/15 A2992 RMK A01 T02350146  RH  057%=      5-min Rain = 0
KCH1 102111Z 19010KT 23/15 A2992 RMK A01 T02340145  RH  057%=      5-min Rain = 0
KCH1 102112Z 19007KT 23/15 A2991 RMK A01 T02330145  RH  058%=      5-min Rain = 0
KCH1 102113Z 20005KT 23/15 A2991 RMK A01 T02340146  RH  058%=      5-min Rain = 0
KCH1 102114Z 18007KT 23/15 A2991 RMK A01 T02340146  RH  058%=      5-min Rain = 0
KCH1 102115Z 20009KT 24/15 A2991 RMK A01 T02350145  RH  057%=      5-min Rain = 0
KCH1 102116Z 20009KT 23/15 A2991 RMK A01 T02340145  RH  057%=      5-min Rain = 0
KCH1 102117Z 21009KT 23/15 A2991 RMK A01 T02340145  RH  057%=      5-min Rain = 0
KCH1 102118Z 21009G14KT 23/15 A2991 RMK A01 T02330145  RH  058%=      5-min Rain = 0
KCH1 102119Z 21011KT 23/15 A2991 RMK A01 T02330145  RH  058%=      5-min Rain = 0
KCH1 102120Z 21010KT 23/14 A2991 RMK A01 T02320144  RH  058%=      5-min Rain = 0
KCH1 102121Z 21008KT 23/14 A2991 RMK A01 T02320144  RH  058%=      5-min Rain = 0
KCH1 102122Z 21007KT 23/15 A2991 RMK A01 T02310145  RH  058%=      5-min Rain = 0
KCH1 102123Z 20007KT 23/15 A2991 RMK A01 T02320146  RH  058%=      5-min Rain = 0
KCH1 102124Z 19010KT 23/14 A2991 RMK A01 T02330144  RH  057%=      5-min Rain = 0
KCH1 102125Z 18010KT 23/14 A2991 RMK A01 T02330144  RH  058%=      5-min Rain = 0
KCH1 102126Z 18008KT 23/15 A2991 RMK A01 T02320145  RH  058%=      5-min Rain = 0
KCH1 102127Z 19007KT 23/15 A2991 RMK A01 T02330146  RH  058%=      5-min Rain = 0
KCH1 102128Z 21006KT 23/15 A2991 RMK A01 T02340146  RH  058%=      5-min Rain = 0
KCH1 102129Z 20008KT 23/15 A2992 RMK A01 T02340146  RH  058%=      5-min Rain = 0
KCH1 102130Z 20009KT 23/15 A2992 RMK A01 T02340146  RH  058%=      5-min Rain = 0
KCH1 102131Z 19010KT 23/15 A2992 RMK A01 T02330145  RH  058%=      5-min Rain = 0
KCH1 102132Z 19009KT 23/15 A2992 RMK A01 T02320145  RH  058%=      5-min Rain = 0
KCH1 102133Z 20009KT 23/15 A2992 RMK A01 T02320145  RH  058%=      5-min Rain = 0
KCH1 102134Z 19007KT 23/15 A2992 RMK A01 T02310145  RH  058%=      5-min Rain = 0
KCH1 102135Z 19007KT 23/15 A2991 RMK A01 T02320145  RH  058%=      5-min Rain = 0
KCH1 102136Z 19008KT 23/15 A2991 RMK A01 T02320145  RH  058%=      5-min Rain = 0
KCH1 102137Z 19010KT 23/15 A2991 RMK A01 T02330146  RH  058%=      5-min Rain = 0
KCH1 102138Z 19008KT 23/15 A2991 RMK A01 T02320145  RH  058%=      5-min Rain = 0
KCH1 102139Z 21008KT 23/15 A2991 RMK A01 T02330146  RH  058%=      5-min Rain = 0
KCH1 102140Z 20008KT 23/15 A2991 RMK A01 T02320146  RH  058%=      5-min Rain = 0
KCH1 102141Z 19008KT 23/15 A2991 RMK A01 T02310145  RH  058%=      5-min Rain = 0
KCH1 102142Z 19006KT 23/15 A2991 RMK A01 T02310146  RH  059%=      5-min Rain = 0
KCH1 102143Z 18007KT 23/15 A2991 RMK A01 T02310146  RH  059%=      5-min Rain = 0
KCH1 102144Z 18006KT 23/15 A2991 RMK A01 T02320146  RH  058%=      5-min Rain = 0
KCH1 102145Z 19007KT 23/15 A2991 RMK A01 T02320147  RH  059%=      5-min Rain = 0
KCH1 102146Z 19007KT 23/15 A2991 RMK A01 T02330147  RH  058%=      5-min Rain = 0
KCH1 102147Z 17007KT 23/15 A2991 RMK A01 T02330147  RH  058%=      5-min Rain = 0
KCH1 102148Z 17007KT 23/15 A2991 RMK A01 T02330146  RH  058%=      5-min Rain = 0
KCH1 102149Z 17006KT 23/15 A2991 RMK A01 T02330147  RH  058%=      5-min Rain = 0
KCH1 102150Z 18008KT 23/15 A2991 RMK A01 T02330146  RH  058%=      5-min Rain = 0
KCH1 102151Z 16007KT 23/15 A2991 RMK A01 T02330147  RH  058%=      5-min Rain = 0
KCH1 102152Z 15010KT 23/15 A2991 RMK A01 T02330147  RH  058%=      5-min Rain = 0
KCH1 102153Z 16009KT 23/15 A2991 RMK A01 T02330147  RH  058%=      5-min Rain = 0
KCH1 102154Z 16007KT 23/15 A2991 RMK A01 T02330147  RH  058%=      5-min Rain = 0
KCH1 102155Z 15008KT 23/15 A2991 RMK A01 T02320146  RH  058%=      5-min Rain = 0
KCH1 102156Z 15006KT 23/15 A2991 RMK A01 T02320147  RH  059%=      5-min Rain = 0
KCH1 102157Z 15006KT 23/15 A2991 RMK A01 T02330147  RH  059%=      5-min Rain = 0
KCH1 102158Z 15007KT 23/15 A299 RMK A01 T02330147  RH  058%=      5-min Rain = 0
KCH1 102159Z 16007KT 23/15 A299 RMK A01 T02340147  RH  058%=      5-min Rain = 0
KCH1 102200Z 17007KT 23/15 A299 RMK A01 T02340147  RH  058%=      5-min Rain = 0
KCH1 102201Z 15005KT 24/15 A299 RMK A01 T02350147  RH  058%=      5-min Rain = 0
KCH1 102202Z 15003KT 24/15 A299 RMK A01 T02350148  RH  058%=      5-min Rain = 0
KCH1 102203Z 14004KT 24/15 A299 RMK A01 T02360149  RH  058%=      5-min Rain = 0
KCH1 102204Z 15004KT 24/15 A299 RMK A01 T02370148  RH  057%=      5-min Rain = 0
KCH1 102205Z 16004KT 24/15 A299 RMK A01 T02390148  RH  057%=      5-min Rain = 0
KCH1 102206Z 17006KT 24/15 A299 RMK A01 T02400148  RH  056%=      5-min Rain = 0
KCH1 102207Z 18005KT 24/15 A299 RMK A01 T02400147  RH  056%=      5-min Rain = 0
KCH1 102208Z 19004KT 24/15 A299 RMK A01 T02400149  RH  057%=      5-min Rain = 0
KCH1 102209Z 19006KT 24/15 A299 RMK A01 T02420150  RH  056%=      5-min Rain = 0
KCH1 102210Z 20005KT 24/15 A299 RMK A01 T02430148  RH  055%=      5-min Rain = 0
KCH1 102211Z 17004KT 24/15 A299 RMK A01 T02430148  RH  056%=      5-min Rain = 0
KCH1 102212Z 18006KT 24/15 A299 RMK A01 T02430147  RH  055%=      5-min Rain = 0
KCH1 102213Z 16007KT 24/15 A299 RMK A01 T02430147  RH  055%=      5-min Rain = 0
KCH1 102214Z 18007KT 24/15 A299 RMK A01 T02440147  RH  055%=      5-min Rain = 0
KCH1 102215Z 19007KT 24/15 A299 RMK A01 T02440148  RH  055%=      5-min Rain = 0
KCH1 102216Z 19006KT 25/15 A299 RMK A01 T02450148  RH  055%=      5-min Rain = 0
KCH1 102217Z 19005KT 25/15 A299 RMK A01 T02450148  RH  055%=      5-min Rain = 0
KCH1 102218Z 18005KT 25/15 A299 RMK A01 T02450149  RH  055%=      5-min Rain = 0
KCH1 102219Z 17007KT 25/15 A299 RMK A01 T02460148  RH  054%=      5-min Rain = 0
KCH1 102220Z 18006KT 25/15 A299 RMK A01 T02470149  RH  054%=      5-min Rain = 0
KCH1 102221Z 19008KT 25/15 A299 RMK A01 T02470149  RH  055%=      5-min Rain = 0
KCH1 102222Z 19007KT 25/15 A299 RMK A01 T02480150  RH  054%=      5-min Rain = 0
KCH1 102223Z 18009KT 25/15 A299 RMK A01 T02480150  RH  055%=      5-min Rain = 0
KCH1 102224Z 19009KT 25/15 A299 RMK A01 T02470149  RH  054%=      5-min Rain = 0
KCH1 102225Z 19008KT 25/15 A299 RMK A01 T02480149  RH  054%=      5-min Rain = 0
KCH1 102226Z 17006KT 25/15 A299 RMK A01 T02470149  RH  054%=      5-min Rain = 0
KCH1 102227Z 19007KT 25/15 A299 RMK A01 T02480150  RH  054%=      5-min Rain = 0
KCH1 102228Z 19010KT 25/15 A2989 RMK A01 T02490149  RH  054%=      5-min Rain = 0
KCH1 102229Z 19008KT 25/15 A2989 RMK A01 T02490148  RH  054%=      5-min Rain = 0
KCH1 102230Z 18010G15KT 25/15 A2989 RMK A01 T02490149  RH  054%=      5-min Rain = 0
KCH1 102231Z 17009G14KT 25/15 A2989 RMK A01 T02500149  RH  053%=      5-min Rain = 0
KCH1 102232Z 18012KT 25/15 A2989 RMK A01 T02500149  RH  053%=      5-min Rain = 0
KCH1 102233Z 19010KT 25/15 A2989 RMK A01 T02510148  RH  053%=      5-min Rain = 0
KCH1 102234Z 19011KT 25/15 A2989 RMK A01 T02510150  RH  053%=      5-min Rain = 0
KCH1 102235Z 19009G14KT 25/15 A2989 RMK A01 T02500148  RH  053%=      5-min Rain = 0
KCH1 102236Z 19009KT 25/15 A2989 RMK A01 T02500149  RH  053%=      5-min Rain = 0
KCH1 102237Z 21007KT 25/15 A2989 RMK A01 T02490150  RH  054%=      5-min Rain = 0
KCH1 102238Z 21009G16KT 25/15 A2989 RMK A01 T02490150  RH  054%=      5-min Rain = 0
KCH1 102239Z 21013G18KT 25/15 A2989 RMK A01 T02500148  RH  053%=      5-min Rain = 0
KCH1 102240Z 20011G18KT 25/15 A2989 RMK A01 T02490148  RH  053%=      5-min Rain = 0
KCH1 102241Z 20010G15KT 25/15 A2989 RMK A01 T02480148  RH  054%=      5-min Rain = 0
KCH1 102242Z 21009KT 25/15 A2989 RMK A01 T02480148  RH  054%=      5-min Rain = 0
KCH1 102243Z 20010KT 25/15 A2989 RMK A01 T02470148  RH  054%=      5-min Rain = 0
KCH1 102244Z 20011KT 25/15 A2989 RMK A01 T02460148  RH  054%=      5-min Rain = 0
KCH1 102245Z 20011KT 25/15 A2989 RMK A01 T02460148  RH  054%=      5-min Rain = 0
KCH1 102246Z 21010G15KT 25/15 A2989 RMK A01 T02450147  RH  054%=      5-min Rain = 0
KCH1 102247Z 21009KT 25/15 A2989 RMK A01 T02450147  RH  054%=      5-min Rain = 0
KCH1 102248Z 20007KT 25/15 A2989 RMK A01 T02450148  RH  055%=      5-min Rain = 0
KCH1 102249Z 20009KT 25/15 A2989 RMK A01 T02450148  RH  055%=      5-min Rain = 0
KCH1 102250Z 20011KT 25/15 A2989 RMK A01 T02450148  RH  055%=      5-min Rain = 0
KCH1 102251Z 20011KT 24/15 A2989 RMK A01 T02440148  RH  055%=      5-min Rain = 0
KCH1 102252Z 20009G14KT 24/15 A2989 RMK A01 T02430148  RH  055%=      5-min Rain = 0
KCH1 102253Z 20011KT 24/15 A2989 RMK A01 T02420148  RH  056%=      5-min Rain = 0
KCH1 102254Z 20011KT 24/15 A2989 RMK A01 T02420148  RH  056%=      5-min Rain = 0
KCH1 102255Z 20008KT 24/15 A2989 RMK A01 T02410148  RH  056%=      5-min Rain = 0
KCH1 102256Z 19008KT 24/15 A2989 RMK A01 T02400147  RH  056%=      5-min Rain = 0
KCH1 102257Z 20007KT 24/15 A2989 RMK A01 T02400148  RH  056%=      5-min Rain = 0
KCH1 102258Z 20012G17KT 24/15 A2989 RMK A01 T02390147  RH  056%=      5-min Rain = 0
KCH1 102259Z 20011KT 24/15 A2989 RMK A01 T02390146  RH  056%=      5-min Rain = 0
KCH1 102300Z 19012KT 24/15 A2989 RMK A01 T02390147  RH  056%=      5-min Rain = 0
KCH1 102301Z 20010KT 24/15 A2989 RMK A01 T02380146  RH  056%=      5-min Rain = 0
KCH1 102302Z 19010KT 24/15 A2989 RMK A01 T02380147  RH  056%=      5-min Rain = 0
KCH1 102303Z 20008KT 24/15 A2989 RMK A01 T02380147  RH  057%=      5-min Rain = 0
KCH1 102304Z 19009KT 24/15 A2989 RMK A01 T02370147  RH  057%=      5-min Rain = 0
KCH1 102305Z 19010KT 24/15 A2989 RMK A01 T02370147  RH  057%=      5-min Rain = 0
KCH1 102306Z 19009G15KT 24/15 A2989 RMK A01 T02370147  RH  057%=      5-min Rain = 0
KCH1 102307Z 20008KT 24/15 A2989 RMK A01 T02370147  RH  057%=      5-min Rain = 0
KCH1 102308Z 19008KT 24/15 A2989 RMK A01 T02360147  RH  057%=      5-min Rain = 0
KCH1 102309Z 19008KT 24/15 A2989 RMK A01 T02350147  RH  057%=      5-min Rain = 0
KCH1 102310Z 20007KT 24/15 A2989 RMK A01 T02350147  RH  058%=      5-min Rain = 0
KCH1 102311Z 20010KT 24/15 A2989 RMK A01 T02350147  RH  058%=      5-min Rain = 0
KCH1 102312Z 20008KT 24/15 A2989 RMK A01 T02350147  RH  058%=      5-min Rain = 0
KCH1 102313Z 21008KT 24/15 A2989 RMK A01 T02350147  RH  058%=      5-min Rain = 0
KCH1 102314Z 20006KT 23/15 A2989 RMK A01 T02340147  RH  058%=      5-min Rain = 0
KCH1 102315Z 20006KT 23/15 A2989 RMK A01 T02340148  RH  058%=      5-min Rain = 0
KCH1 102316Z 21008KT 23/15 A2989 RMK A01 T02330147  RH  058%=      5-min Rain = 0
KCH1 102317Z 20008KT 23/15 A2989 RMK A01 T02330147  RH  058%=      5-min Rain = 0
KCH1 102318Z 20007KT 23/15 A2989 RMK A01 T02330147  RH  058%=      5-min Rain = 0
KCH1 102319Z 20006KT 23/15 A2989 RMK A01 T02330147  RH  058%=      5-min Rain = 0
KCH1 102320Z 20007KT 23/15 A2989 RMK A01 T02330147  RH  058%=      5-min Rain = 0
KCH1 102321Z 20006KT 23/15 A2989 RMK A01 T02320147  RH  059%=      5-min Rain = 0
KCH1 102322Z 20007KT 23/15 A2989 RMK A01 T02320147  RH  059%=      5-min Rain = 0
KCH1 102323Z 20006KT 23/15 A2989 RMK A01 T02310147  RH  059%=      5-min Rain = 0
KCH1 102324Z 20007KT 23/15 A2989 RMK A01 T02310147  RH  059%=      5-min Rain = 0
KCH1 102325Z 19006KT 23/15 A2989 RMK A01 T02310147  RH  059%=      5-min Rain = 0
KCH1 102326Z 19007KT 23/15 A2989 RMK A01 T02310147  RH  059%=      5-min Rain = 0
KCH1 102327Z 19006KT 23/15 A2989 RMK A01 T02300147  RH  059%=      5-min Rain = 0
KCH1 102328Z 19006KT 23/15 A299 RMK A01 T02300147  RH  060%=      5-min Rain = 0
KCH1 102329Z 19005KT 23/15 A299 RMK A01 T02290147  RH  060%=      5-min Rain = 0
KCH1 102330Z 19005KT 23/15 A299 RMK A01 T02290148  RH  060%=      5-min Rain = 0
KCH1 102331Z 19007KT 23/15 A299 RMK A01 T02280147  RH  060%=      5-min Rain = 0
KCH1 102332Z 19007KT 23/15 A299 RMK A01 T02280147  RH  060%=      5-min Rain = 0
KCH1 102333Z 18006KT 23/15 A299 RMK A01 T02280147  RH  060%=      5-min Rain = 0
KCH1 102334Z 19005KT 23/15 A299 RMK A01 T02280147  RH  060%=      5-min Rain = 0
KCH1 102335Z 19007KT 23/15 A299 RMK A01 T02270147  RH  060%=      5-min Rain = 0
KCH1 102336Z 19006KT 23/15 A299 RMK A01 T02270147  RH  060%=      5-min Rain = 0
KCH1 102337Z 20006KT 23/15 A299 RMK A01 T02270147  RH  060%=      5-min Rain = 0
KCH1 102338Z 19006KT 23/15 A299 RMK A01 T02270147  RH  061%=      5-min Rain = 0
KCH1 102339Z 20005KT 23/15 A299 RMK A01 T02270147  RH  061%=      5-min Rain = 0
KCH1 102340Z 20005KT 23/15 A299 RMK A01 T02260147  RH  061%=      5-min Rain = 0
KCH1 102341Z 20007G13KT 23/15 A299 RMK A01 T02260147  RH  061%=      5-min Rain = 0
KCH1 102342Z 20007KT 23/15 A299 RMK A01 T02260146  RH  061%=      5-min Rain = 0
KCH1 102343Z 20007KT 23/15 A299 RMK A01 T02260146  RH  061%=      5-min Rain = 0
KCH1 102344Z 20009KT 23/15 A299 RMK A01 T02250146  RH  061%=      5-min Rain = 0
KCH1 102345Z 20008KT 23/15 A299 RMK A01 T02250145  RH  061%=      5-min Rain = 0
KCH1 102346Z 20006KT 23/15 A299 RMK A01 T02260146  RH  061%=      5-min Rain = 0
KCH1 102347Z 20007KT 23/15 A299 RMK A01 T02250146  RH  061%=      5-min Rain = 0
KCH1 102348Z 20007KT 23/15 A299 RMK A01 T02250146  RH  061%=      5-min Rain = 0
KCH1 102349Z 20007G12KT 22/15 A299 RMK A01 T02240145  RH  061%=      5-min Rain = 0
KCH1 102350Z 20007KT 22/15 A299 RMK A01 T02240145  RH  061%=      5-min Rain = 0
KCH1 102351Z 20007KT 22/15 A299 RMK A01 T02240145  RH  061%=      5-min Rain = 0
KCH1 102352Z 20005KT 22/15 A299 RMK A01 T02230145  RH  061%=      5-min Rain = 0
KCH1 102353Z 19006KT 22/15 A299 RMK A01 T02230145  RH  061%=      5-min Rain = 0
KCH1 102354Z 20007KT 22/15 A299 RMK A01 T02230145  RH  061%=      5-min Rain = 0
KCH1 102355Z 20007KT 22/15 A299 RMK A01 T02220145  RH  062%=      5-min Rain = 0
KCH1 102356Z 19008KT 22/15 A299 RMK A01 T02220145  RH  062%=      5-min Rain = 0
KCH1 102357Z 19006KT 22/15 A299 RMK A01 T02230145  RH  062%=      5-min Rain = 0
KCH1 102358Z 20006KT 22/15 A299 RMK A01 T02220146  RH  062%=      5-min Rain = 0
KCH1 102359Z 19008KT 22/15 A299 RMK A01 T02220145  RH  062%=      5-min Rain = 0
KCH1 110000Z 19006KT 22/15 A299 RMK A01 T02210145  RH  062%=      5-min Rain = 0
KCH1 110001Z 20006KT 22/15 A299 RMK A01 T02210145  RH  062%=      5-min Rain = 0
KCH1 110002Z 19007KT 22/15 A299 RMK A01 T02210145  RH  062%=      5-min Rain = 0
KCH1 110003Z 20006KT 22/15 A299 RMK A01 T02200145  RH  063%=      5-min Rain = 0
KCH1 110004Z 19006KT 22/15 A299 RMK A01 T02190145  RH  063%=      5-min Rain = 0
KCH1 110005Z 19006KT 22/15 A299 RMK A01 T02190145  RH  063%=      5-min Rain = 0
KCH1 110006Z 18007KT 22/15 A299 RMK A01 T02190145  RH  063%=      5-min Rain = 0
KCH1 110007Z 19007KT 22/15 A299 RMK A01 T02180145  RH  063%=      5-min Rain = 0
KCH1 110008Z 19006KT 22/15 A299 RMK A01 T02180145  RH  063%=      5-min Rain = 0
KCH1 110009Z 19006KT 22/15 A299 RMK A01 T02170145  RH  064%=      5-min Rain = 0
KCH1 110010Z 19006KT 22/15 A299 RMK A01 T02170145  RH  064%=      5-min Rain = 0
KCH1 110011Z 19005KT 22/15 A299 RMK A01 T02160145  RH  064%=      5-min Rain = 0
KCH1 110012Z 19005KT 22/15 A299 RMK A01 T02150145  RH  064%=      5-min Rain = 0
KCH1 110013Z 19005KT 21/15 A299 RMK A01 T02140145  RH  065%=      5-min Rain = 0
KCH1 110014Z 20006KT 21/15 A299 RMK A01 T02140146  RH  065%=      5-min Rain = 0
KCH1 110015Z 19005KT 21/15 A299 RMK A01 T02140146  RH  065%=      5-min Rain = 0
KCH1 110016Z 19006KT 21/15 A299 RMK A01 T02130146  RH  065%=      5-min Rain = 0
KCH1 110017Z 19006KT 21/15 A299 RMK A01 T02130146  RH  066%=      5-min Rain = 0
KCH1 110018Z 19006KT 21/15 A299 RMK A01 T02120146  RH  066%=      5-min Rain = 0
KCH1 110019Z 20006KT 21/15 A299 RMK A01 T02120146  RH  066%=      5-min Rain = 0
KCH1 110020Z 19006KT 21/15 A299 RMK A01 T02120145  RH  066%=      5-min Rain = 0
KCH1 110021Z 19006KT 21/15 A299 RMK A01 T02120146  RH  066%=      5-min Rain = 0
KCH1 110022Z 19006KT 21/15 A299 RMK A01 T02120146  RH  066%=      5-min Rain = 0
KCH1 110023Z 19006KT 21/15 A299 RMK A01 T02120145  RH  066%=      5-min Rain = 0
KCH1 110024Z 19006KT 21/15 A299 RMK A01 T02120145  RH  066%=      5-min Rain = 0
KCH1 110025Z 19006KT 21/15 A299 RMK A01 T02120146  RH  066%=      5-min Rain = 0
KCH1 110026Z 20006KT 21/15 A299 RMK A01 T02110145  RH  066%=      5-min Rain = 0
KCH1 110027Z 19005KT 21/15 A299 RMK A01 T02110145  RH  066%=      5-min Rain = 0
KCH1 110028Z 19006KT 21/15 A299 RMK A01 T02110145  RH  066%=      5-min Rain = 0
KCH1 110029Z 19006KT 21/15 A299 RMK A01 T02100145  RH  066%=      5-min Rain = 0
KCH1 110030Z 18005KT 21/15 A299 RMK A01 T02090145  RH  067%=      5-min Rain = 0
KCH1 110031Z 18005KT 21/15 A299 RMK A01 T02090145  RH  067%=      5-min Rain = 0
KCH1 110032Z 18005KT 21/15 A299 RMK A01 T02080145  RH  067%=      5-min Rain = 0
KCH1 110033Z 18005KT 21/15 A299 RMK A01 T02070145  RH  068%=      5-min Rain = 0
KCH1 110034Z 18005KT 21/15 A299 RMK A01 T02060145  RH  068%=      5-min Rain = 0
KCH1 110035Z 18005KT 21/15 A299 RMK A01 T02050145  RH  068%=      5-min Rain = 0
KCH1 110036Z 18005KT 21/15 A299 RMK A01 T02050145  RH  068%=      5-min Rain = 0
KCH1 110037Z 18005KT 21/15 A299 RMK A01 T02050145  RH  068%=      5-min Rain = 0
KCH1 110038Z 18006KT 21/15 A299 RMK A01 T02050145  RH  068%=      5-min Rain = 0
KCH1 110039Z 18006KT 21/15 A299 RMK A01 T02050145  RH  068%=      5-min Rain = 0
KCH1 110040Z 19006KT 21/15 A299 RMK A01 T02050145  RH  068%=      5-min Rain = 0
KCH1 110041Z 18006KT 20/15 A299 RMK A01 T02040145  RH  069%=      5-min Rain = 0
KCH1 110042Z 19007KT 21/15 A299 RMK A01 T02050145  RH  069%=      5-min Rain = 0
KCH1 110043Z 18006KT 20/15 A299 RMK A01 T02040145  RH  069%=      5-min Rain = 0
KCH1 110044Z 18007KT 20/15 A299 RMK A01 T02040145  RH  069%=      5-min Rain = 0
KCH1 110045Z 19006KT 20/15 A299 RMK A01 T02030145  RH  069%=      5-min Rain = 0
KCH1 110046Z 19006KT 20/15 A299 RMK A01 T02030145  RH  069%=      5-min Rain = 0
KCH1 110047Z 18006KT 20/15 A299 RMK A01 T02030145  RH  069%=      5-min Rain = 0
KCH1 110048Z 18007KT 20/15 A299 RMK A01 T02030145  RH  069%=      5-min Rain = 0
KCH1 110049Z 19008KT 20/15 A299 RMK A01 T02030145  RH  069%=      5-min Rain = 0
KCH1 110050Z 19006KT 20/15 A299 RMK A01 T02030145  RH  069%=      5-min Rain = 0
KCH1 110051Z 19007KT 20/15 A299 RMK A01 T02020145  RH  070%=      5-min Rain = 0
KCH1 110052Z 19006KT 20/15 A299 RMK A01 T02020145  RH  070%=      5-min Rain = 0
KCH1 110053Z 19007KT 20/15 A299 RMK A01 T02020145  RH  070%=      5-min Rain = 0
KCH1 110054Z 19007KT 20/15 A299 RMK A01 T02010145  RH  070%=      5-min Rain = 0
KCH1 110055Z 19007KT 20/15 A299 RMK A01 T02010145  RH  070%=      5-min Rain = 0
KCH1 110056Z 19007KT 20/15 A299 RMK A01 T02010145  RH  070%=      5-min Rain = 0
KCH1 110057Z 19008KT 20/15 A299 RMK A01 T02010145  RH  070%=      5-min Rain = 0
KCH1 110058Z 18007KT 20/15 A299 RMK A01 T02020145  RH  070%=      5-min Rain = 0
KCH1 110059Z 19007KT 20/15 A299 RMK A01 T02020145  RH  070%=      5-min Rain = 0
KCH1 110100Z 19007KT 20/15 A299 RMK A01 T02010145  RH  070%=      5-min Rain = 0
KCH1 110101Z 19007KT 20/15 A299 RMK A01 T02010145  RH  070%=      5-min Rain = 0
KCH1 110102Z 19007KT 20/15 A299 RMK A01 T02010145  RH  070%=      5-min Rain = 0
KCH1 110103Z 19008KT 20/15 A299 RMK A01 T02010145  RH  070%=      5-min Rain = 0
KCH1 110104Z 19008KT 20/15 A299 RMK A01 T02010145  RH  070%=      5-min Rain = 0
KCH1 110105Z 19008KT 20/15 A299 RMK A01 T02010145  RH  070%=      5-min Rain = 0
KCH1 110106Z 19008KT 20/15 A299 RMK A01 T02010145  RH  070%=      5-min Rain = 0
KCH1 110107Z 19008KT 20/14 A299 RMK A01 T02010144  RH  070%=      5-min Rain = 0
KCH1 110108Z 19007KT 20/14 A299 RMK A01 T02010144  RH  070%=      5-min Rain = 0
KCH1 110109Z 18007KT 20/14 A299 RMK A01 T02010144  RH  070%=      5-min Rain = 0
KCH1 110110Z 19007KT 20/14 A2991 RMK A01 T02010144  RH  070%=      5-min Rain = 0
KCH1 110111Z 19007KT 20/15 A2991 RMK A01 T02010145  RH  070%=      5-min Rain = 0
KCH1 110112Z 19008KT 20/15 A2991 RMK A01 T02000145  RH  070%=      5-min Rain = 0
KCH1 110113Z 18007KT 20/14 A2991 RMK A01 T02000144  RH  070%=      5-min Rain = 0
KCH1 110114Z 19007KT 20/14 A2991 RMK A01 T02000144  RH  070%=      5-min Rain = 0
KCH1 110115Z 19007KT 20/14 A2991 RMK A01 T02000144  RH  070%=      5-min Rain = 0
KCH1 110116Z 19007KT 20/14 A2991 RMK A01 T02000144  RH  070%=      5-min Rain = 0
KCH1 110117Z 19007KT 20/15 A2991 RMK A01 T02000145  RH  070%=      5-min Rain = 0
KCH1 110118Z 18007KT 20/14 A2991 RMK A01 T02000144  RH  070%=      5-min Rain = 0
KCH1 110119Z 18007KT 20/14 A2991 RMK A01 T02000144  RH  070%=      5-min Rain = 0
KCH1 110120Z 19007KT 20/14 A2991 RMK A01 T02000144  RH  070%=      5-min Rain = 0
KCH1 110121Z 18006KT 20/14 A2991 RMK A01 T02000144  RH  070%=      5-min Rain = 0
KCH1 110122Z 18006KT 20/15 A2991 RMK A01 T02000145  RH  070%=      5-min Rain = 0
KCH1 110123Z 19006KT 20/14 A2991 RMK A01 T02000144  RH  070%=      5-min Rain = 0
KCH1 110124Z 19006KT 20/15 A2991 RMK A01 T02000145  RH  070%=      5-min Rain = 0
KCH1 110125Z 18006KT 20/14 A2991 RMK A01 T02000144  RH  070%=      5-min Rain = 0
KCH1 110126Z 19006KT 20/14 A2991 RMK A01 T01990144  RH  071%=      5-min Rain = 0
KCH1 110127Z 18007KT 20/14 A2991 RMK A01 T01990144  RH  071%=      5-min Rain = 0
KCH1 110128Z 19007KT 20/14 A2991 RMK A01 T01990144  RH  071%=      5-min Rain = 0
KCH1 110129Z 18006KT 20/14 A2991 RMK A01 T02000144  RH  070%=      5-min Rain = 0
KCH1 110130Z 17006KT 20/14 A2991 RMK A01 T02000144  RH  070%=      5-min Rain = 0
KCH1 110131Z 18006KT 20/14 A2991 RMK A01 T01990144  RH  071%=      5-min Rain = 0
KCH1 110132Z 18006KT 20/15 A2991 RMK A01 T02000145  RH  071%=      5-min Rain = 0
KCH1 110133Z 17006KT 20/14 A2991 RMK A01 T01990144  RH  071%=      5-min Rain = 0
KCH1 110134Z 17006KT 20/15 A2991 RMK A01 T02000145  RH  071%=      5-min Rain = 0
KCH1 110135Z 18005KT 20/14 A2991 RMK A01 T01990144  RH  071%=      5-min Rain = 0
KCH1 110136Z 18006KT 20/15 A2991 RMK A01 T01990145  RH  071%=      5-min Rain = 0
KCH1 110137Z 17006KT 20/15 A2991 RMK A01 T01990145  RH  071%=      5-min Rain = 0
KCH1 110138Z 17008KT 20/15 A2991 RMK A01 T01990145  RH  071%=      5-min Rain = 0
KCH1 110139Z 17007KT 20/15 A2991 RMK A01 T01990145  RH  071%=      5-min Rain = 0
KCH1 110140Z 16006KT 20/14 A2991 RMK A01 T01990144  RH  071%=      5-min Rain = 0
KCH1 110141Z 17006KT 20/14 A2991 RMK A01 T01990144  RH  071%=      5-min Rain = 0
KCH1 110142Z 17006KT 20/15 A2991 RMK A01 T01990145  RH  071%=      5-min Rain = 0
KCH1 110143Z 17007KT 20/15 A2991 RMK A01 T01990145  RH  071%=      5-min Rain = 0
KCH1 110144Z 17007KT 20/14 A2991 RMK A01 T01980144  RH  071%=      5-min Rain = 0
KCH1 110145Z 17006KT 20/15 A2991 RMK A01 T01990145  RH  071%=      5-min Rain = 0
KCH1 110146Z 17007KT 20/15 A2991 RMK A01 T01990145  RH  071%=      5-min Rain = 0
KCH1 110147Z 17006KT 20/15 A2991 RMK A01 T01990145  RH  071%=      5-min Rain = 0
KCH1 110148Z 17007KT 20/15 A2991 RMK A01 T01980145  RH  071%=      5-min Rain = 0
KCH1 110149Z 17007KT 20/15 A2991 RMK A01 T01980145  RH  071%=      5-min Rain = 0
KCH1 110150Z 17007KT 20/15 A2991 RMK A01 T01980145  RH  072%=      5-min Rain = 0
KCH1 110151Z 17006KT 20/15 A2991 RMK A01 T01970145  RH  072%=      5-min Rain = 0
KCH1 110152Z 17007KT 20/15 A2991 RMK A01 T01970145  RH  072%=      5-min Rain = 0
KCH1 110153Z 17008KT 20/15 A2991 RMK A01 T01970145  RH  072%=      5-min Rain = 0
KCH1 110154Z 17009KT 20/15 A2991 RMK A01 T01970145  RH  072%=      5-min Rain = 0
KCH1 110155Z 16006KT 20/15 A2991 RMK A01 T01970145  RH  072%=      5-min Rain = 0
KCH1 110156Z 17006KT 20/15 A2991 RMK A01 T01970145  RH  072%=      5-min Rain = 0
KCH1 110157Z 17005KT 20/15 A2991 RMK A01 T01960145  RH  072%=      5-min Rain = 0
KCH1 110158Z 17006KT 20/15 A2991 RMK A01 T01960145  RH  072%=      5-min Rain = 0
KCH1 110159Z 17007KT 20/15 A2991 RMK A01 T01950145  RH  072%=      5-min Rain = 0
KCH1 110200Z 17008KT 20/15 A2991 RMK A01 T01950145  RH  073%=      5-min Rain = 0
KCH1 110201Z 17006KT 20/15 A2991 RMK A01 T01950145  RH  073%=      5-min Rain = 0
KCH1 110202Z 17007KT 20/15 A2991 RMK A01 T01950145  RH  072%=      5-min Rain = 0
KCH1 110203Z 17007KT 20/15 A2991 RMK A01 T01950145  RH  073%=      5-min Rain = 0
KCH1 110204Z 17006KT 20/15 A2991 RMK A01 T01950145  RH  073%=      5-min Rain = 0
KCH1 110205Z 17007KT 20/15 A2991 RMK A01 T01950145  RH  073%=      5-min Rain = 0
KCH1 110206Z 17007KT 20/15 A2991 RMK A01 T01950145  RH  073%=      5-min Rain = 0
KCH1 110207Z 17008KT 20/15 A299 RMK A01 T01950145  RH  073%=      5-min Rain = 0
KCH1 110208Z 17006KT 20/15 A299 RMK A01 T01950145  RH  073%=      5-min Rain = 0
KCH1 110209Z 17006KT 20/14 A2991 RMK A01 T01950144  RH  073%=      5-min Rain = 0
KCH1 110210Z 17006KT 19/15 A2991 RMK A01 T01940145  RH  073%=      5-min Rain = 0
KCH1 110211Z 17006KT 19/15 A2991 RMK A01 T01940145  RH  073%=      5-min Rain = 0
KCH1 110212Z 17006KT 19/15 A2991 RMK A01 T01940145  RH  073%=      5-min Rain = 0
KCH1 110213Z 16006KT 19/15 A2991 RMK A01 T01930145  RH  074%=      5-min Rain = 0
KCH1 110214Z 16007KT 19/15 A2991 RMK A01 T01920145  RH  074%=      5-min Rain = 0
KCH1 110215Z 15005KT 19/15 A2991 RMK A01 T01920145  RH  074%=      5-min Rain = 0
KCH1 110216Z 14005KT 19/15 A299 RMK A01 T01920145  RH  074%=      5-min Rain = 0
KCH1 110217Z 15006KT 19/15 A299 RMK A01 T01910145  RH  075%=      5-min Rain = 0
KCH1 110218Z 14006KT 19/15 A299 RMK A01 T01900145  RH  075%=      5-min Rain = 0
KCH1 110219Z 15006KT 19/15 A299 RMK A01 T01890145  RH  075%=      5-min Rain = 0
KCH1 110220Z 15004KT 19/15 A2991 RMK A01 T01880145  RH  076%=      5-min Rain = 0
KCH1 110221Z 15005KT 19/15 A2991 RMK A01 T01870145  RH  076%=      5-min Rain = 0
KCH1 110222Z 15005KT 19/15 A2991 RMK A01 T01870145  RH  076%=      5-min Rain = 0
KCH1 110223Z 15006KT 19/15 A2991 RMK A01 T01870145  RH  077%=      5-min Rain = 0
KCH1 110224Z 15005KT 19/15 A2991 RMK A01 T01860145  RH  077%=      5-min Rain = 0
KCH1 110225Z 15006KT 19/15 A2991 RMK A01 T01860145  RH  077%=      5-min Rain = 0
KCH1 110226Z 15006KT 19/15 A2991 RMK A01 T01860145  RH  077%=      5-min Rain = 0
KCH1 110227Z 16005KT 19/15 A2991 RMK A01 T01860145  RH  077%=      5-min Rain = 0
KCH1 110228Z 15006KT 19/15 A2991 RMK A01 T01860145  RH  077%=      5-min Rain = 0
KCH1 110229Z 16005KT 19/15 A2991 RMK A01 T01850145  RH  077%=      5-min Rain = 0
KCH1 110230Z 16005KT 19/15 A2991 RMK A01 T01850145  RH  077%=      5-min Rain = 0
KCH1 110231Z 16005KT 19/15 A2991 RMK A01 T01850145  RH  078%=      5-min Rain = 0
KCH1 110232Z 15006KT 19/15 A2991 RMK A01 T01850145  RH  078%=      5-min Rain = 0
KCH1 110233Z 16005KT 19/15 A2991 RMK A01 T01850145  RH  078%=      5-min Rain = 0
KCH1 110234Z 16005KT 19/15 A2991 RMK A01 T01850145  RH  078%=      5-min Rain = 0
KCH1 110235Z 16005KT 19/15 A2991 RMK A01 T01850145  RH  077%=      5-min Rain = 0
KCH1 110236Z 15003KT 19/15 A2991 RMK A01 T01850145  RH  077%=      5-min Rain = 0
KCH1 110237Z 15004KT 19/15 A2991 RMK A01 T01850145  RH  078%=      5-min Rain = 0
KCH1 110238Z 16005KT 18/15 A2991 RMK A01 T01840145  RH  078%=      5-min Rain = 0
KCH1 110239Z 15005KT 18/15 A2991 RMK A01 T01840145  RH  078%=      5-min Rain = 0
KCH1 110240Z 15005KT 18/15 A2991 RMK A01 T01840145  RH  078%=      5-min Rain = 0
KCH1 110241Z 15004KT 18/15 A2991 RMK A01 T01830145  RH  078%=      5-min Rain = 0
KCH1 110242Z 16006KT 18/15 A2991 RMK A01 T01830145  RH  078%=      5-min Rain = 0
KCH1 110243Z 15005KT 18/15 A2991 RMK A01 T01840145  RH  078%=      5-min Rain = 0
KCH1 110244Z 15004KT 18/15 A2991 RMK A01 T01840145  RH  078%=      5-min Rain = 0
KCH1 110245Z 16003KT 18/15 A2991 RMK A01 T01840145  RH  078%=      5-min Rain = 0
KCH1 110246Z 15004KT 18/15 A2991 RMK A01 T01840145  RH  078%=      5-min Rain = 0
KCH1 110247Z 15003KT 18/15 A2991 RMK A01 T01830145  RH  078%=      5-min Rain = 0
KCH1 110248Z 16003KT 18/15 A2991 RMK A01 T01830145  RH  078%=      5-min Rain = 0
KCH1 110249Z 16004KT 18/15 A2991 RMK A01 T01830145  RH  078%=      5-min Rain = 0
KCH1 110250Z 16004KT 18/15 A2991 RMK A01 T01830145  RH  079%=      5-min Rain = 0
KCH1 110251Z 16005KT 18/15 A2991 RMK A01 T01830145  RH  079%=      5-min Rain = 0
KCH1 110252Z 16005KT 18/15 A2991 RMK A01 T01830145  RH  079%=      5-min Rain = 0
KCH1 110253Z 17005KT 18/15 A2991 RMK A01 T01830145  RH  079%=      5-min Rain = 0
KCH1 110254Z 16005KT 18/15 A2991 RMK A01 T01830145  RH  079%=      5-min Rain = 0
KCH1 110255Z 16005KT 18/15 A2991 RMK A01 T01830145  RH  079%=      5-min Rain = 0
KCH1 110256Z 16005KT 18/15 A2991 RMK A01 T01830145  RH  079%=      5-min Rain = 0
KCH1 110257Z 16005KT 18/15 A2991 RMK A01 T01820145  RH  079%=      5-min Rain = 0
KCH1 110258Z 16005KT 18/15 A2991 RMK A01 T01820145  RH  079%=      5-min Rain = 0
KCH1 110259Z 16006KT 18/15 A2991 RMK A01 T01820145  RH  079%=      5-min Rain = 0
KCH1 110300Z 16005KT 18/15 A2991 RMK A01 T01820145  RH  079%=      5-min Rain = 0
KCH1 110301Z 16005KT 18/15 A2991 RMK A01 T01820145  RH  079%=      5-min Rain = 0
KCH1 110302Z 16004KT 18/15 A2991 RMK A01 T01820145  RH  079%=      5-min Rain = 0
KCH1 110303Z 15004KT 18/14 A2991 RMK A01 T01810144  RH  079%=      5-min Rain = 0
KCH1 110304Z 16005KT 18/15 A2991 RMK A01 T01800145  RH  080%=      5-min Rain = 0
KCH1 110305Z 15005KT 18/14 A2991 RMK A01 T01790144  RH  080%=      5-min Rain = 0
KCH1 110306Z 15005KT 18/14 A2991 RMK A01 T01790144  RH  080%=      5-min Rain = 0
KCH1 110307Z 16005KT 18/15 A2991 RMK A01 T01790145  RH  080%=      5-min Rain = 0
KCH1 110308Z 15005KT 18/15 A2991 RMK A01 T01790145  RH  080%=      5-min Rain = 0
KCH1 110309Z 15005KT 18/15 A2991 RMK A01 T01790145  RH  080%=      5-min Rain = 0
KCH1 110310Z 16004KT 18/14 A2991 RMK A01 T01790144  RH  080%=      5-min Rain = 0
KCH1 110311Z 15005KT 18/15 A2991 RMK A01 T01790145  RH  080%=      5-min Rain = 0
KCH1 110312Z 15005KT 18/14 A2991 RMK A01 T01780144  RH  081%=      5-min Rain = 0
KCH1 110313Z 15005KT 18/15 A2991 RMK A01 T01780145  RH  081%=      5-min Rain = 0
KCH1 110314Z 14004KT 18/14 A2991 RMK A01 T01770144  RH  081%=      5-min Rain = 0
KCH1 110315Z 14005KT 18/14 A2991 RMK A01 T01770144  RH  081%=      5-min Rain = 0
KCH1 110316Z 14005KT 18/15 A2992 RMK A01 T01770145  RH  081%=      5-min Rain = 0
KCH1 110317Z 15005KT 18/14 A2992 RMK A01 T01770144  RH  081%=      5-min Rain = 0
KCH1 110318Z 14005KT 18/14 A2992 RMK A01 T01760144  RH  081%=      5-min Rain = 0
KCH1 110319Z 14005KT 18/15 A2992 RMK A01 T01760145  RH  082%=      5-min Rain = 0
KCH1 110320Z 14006KT 18/14 A2992 RMK A01 T01760144  RH  082%=      5-min Rain = 0
KCH1 110321Z 13005KT 18/14 A2992 RMK A01 T01760144  RH  082%=      5-min Rain = 0
KCH1 110322Z 14006KT 18/14 A2992 RMK A01 T01760144  RH  082%=      5-min Rain = 0
KCH1 110323Z 14004KT 18/15 A2992 RMK A01 T01760145  RH  082%=      5-min Rain = 0
KCH1 110324Z 14006KT 18/14 A2992 RMK A01 T01750144  RH  082%=      5-min Rain = 0
KCH1 110325Z 14006KT 18/14 A2992 RMK A01 T01750144  RH  082%=      5-min Rain = 0
KCH1 110326Z 14005KT 18/15 A2992 RMK A01 T01750145  RH  082%=      5-min Rain = 0
KCH1 110327Z 14005KT 18/14 A2992 RMK A01 T01750144  RH  082%=      5-min Rain = 0
KCH1 110328Z 13005KT 18/14 A2992 RMK A01 T01750144  RH  082%=      5-min Rain = 0
KCH1 110329Z 13005KT 18/14 A2992 RMK A01 T01750144  RH  082%=      5-min Rain = 0
KCH1 110330Z 14005KT 17/14 A2992 RMK A01 T01740144  RH  083%=      5-min Rain = 0
KCH1 110331Z 14005KT 17/14 A2992 RMK A01 T01740144  RH  083%=      5-min Rain = 0
KCH1 110332Z 15004KT 17/14 A2992 RMK A01 T01730144  RH  083%=      5-min Rain = 0
KCH1 110333Z 14004KT 17/14 A2992 RMK A01 T01730144  RH  083%=      5-min Rain = 0
KCH1 110334Z 14006KT 17/14 A2992 RMK A01 T01730144  RH  083%=      5-min Rain = 0
KCH1 110335Z 14004KT 17/14 A2992 RMK A01 T01730144  RH  083%=      5-min Rain = 0
KCH1 110336Z 15005KT 17/14 A2992 RMK A01 T01720144  RH  083%=      5-min Rain = 0
KCH1 110337Z 15005KT 17/14 A2992 RMK A01 T01720144  RH  083%=      5-min Rain = 0
KCH1 110338Z 16005KT 17/14 A2992 RMK A01 T01720144  RH  084%=      5-min Rain = 0
KCH1 110339Z 16005KT 17/14 A2992 RMK A01 T01720144  RH  084%=      5-min Rain = 0
KCH1 110340Z 15005KT 17/14 A2992 RMK A01 T01720144  RH  084%=      5-min Rain = 0
KCH1 110341Z 17005KT 17/14 A2992 RMK A01 T01720144  RH  083%=      5-min Rain = 0
KCH1 110342Z 17005KT 17/14 A2992 RMK A01 T01730144  RH  083%=      5-min Rain = 0
KCH1 110343Z 17005KT 17/14 A2992 RMK A01 T01730144  RH  083%=      5-min Rain = 0
KCH1 110344Z 17005KT 17/14 A2992 RMK A01 T01730144  RH  083%=      5-min Rain = 0
KCH1 110345Z 18004KT 17/14 A2992 RMK A01 T01730144  RH  083%=      5-min Rain = 0
KCH1 110346Z 18005KT 17/14 A2992 RMK A01 T01730144  RH  083%=      5-min Rain = 0
KCH1 110347Z 18006KT 17/14 A2992 RMK A01 T01730144  RH  083%=      5-min Rain = 0
KCH1 110348Z 17006KT 17/14 A2992 RMK A01 T01730144  RH  083%=      5-min Rain = 0
KCH1 110349Z 18007KT 17/14 A2992 RMK A01 T01730144  RH  083%=      5-min Rain = 0
KCH1 110350Z 18006KT 17/14 A2992 RMK A01 T01740144  RH  082%=      5-min Rain = 0
KCH1 110351Z 18005KT 18/14 A2992 RMK A01 T01750144  RH  082%=      5-min Rain = 0
KCH1 110352Z 18005KT 18/14 A2992 RMK A01 T01750144  RH  082%=      5-min Rain = 0
KCH1 110353Z 18004KT 17/14 A2992 RMK A01 T01740144  RH  082%=      5-min Rain = 0
KCH1 110354Z 18005KT 17/14 A2992 RMK A01 T01730144  RH  083%=      5-min Rain = 0
KCH1 110355Z 18005KT 17/14 A2992 RMK A01 T01730144  RH  083%=      5-min Rain = 0
KCH1 110356Z 18004KT 17/14 A2992 RMK A01 T01720143  RH  083%=      5-min Rain = 0
KCH1 110357Z 17005KT 17/14 A2992 RMK A01 T01720144  RH  083%=      5-min Rain = 0
KCH1 110358Z 18005KT 17/14 A2992 RMK A01 T01720144  RH  084%=      5-min Rain = 0
KCH1 110359Z 17004KT 17/14 A2992 RMK A01 T01720144  RH  084%=      5-min Rain = 0
KCH1 110400Z 16004KT 17/14 A2992 RMK A01 T01720144  RH  084%=      5-min Rain = 0
KCH1 110401Z 17004KT 17/14 A2992 RMK A01 T01710143  RH  084%=      5-min Rain = 0
KCH1 110402Z 16004KT 17/14 A2992 RMK A01 T01710143  RH  084%=      5-min Rain = 0
KCH1 110403Z 17004KT 17/14 A2992 RMK A01 T01700143  RH  084%=      5-min Rain = 0
KCH1 110404Z 16004KT 17/14 A2992 RMK A01 T01700144  RH  084%=      5-min Rain = 0
KCH1 110405Z 16003KT 17/14 A2992 RMK A01 T01700143  RH  084%=      5-min Rain = 0
KCH1 110406Z 16004KT 17/14 A2992 RMK A01 T01700143  RH  084%=      5-min Rain = 0
KCH1 110407Z 16004KT 17/14 A2992 RMK A01 T01690143  RH  085%=      5-min Rain = 0
KCH1 110408Z 16004KT 17/14 A2992 RMK A01 T01680143  RH  085%=      5-min Rain = 0
KCH1 110409Z 16003KT 17/14 A2992 RMK A01 T01680143  RH  085%=      5-min Rain = 0
KCH1 110410Z 15004KT 17/14 A2992 RMK A01 T01680143  RH  085%=      5-min Rain = 0
KCH1 110411Z 17004KT 17/14 A2992 RMK A01 T01680143  RH  085%=      5-min Rain = 0
KCH1 110412Z 16004KT 17/14 A2992 RMK A01 T01670142  RH  085%=      5-min Rain = 0
KCH1 110413Z 16004KT 17/14 A2992 RMK A01 T01670142  RH  086%=      5-min Rain = 0
KCH1 110414Z 16004KT 17/14 A2992 RMK A01 T01660142  RH  086%=      5-min Rain = 0
KCH1 110415Z 17004KT 17/14 A2992 RMK A01 T01660142  RH  086%=      5-min Rain = 0
KCH1 110416Z 17004KT 17/14 A2992 RMK A01 T01660142  RH  086%=      5-min Rain = 0
KCH1 110417Z 17004KT 17/14 A2992 RMK A01 T01650142  RH  086%=      5-min Rain = 0
KCH1 110418Z 17005KT 17/14 A2992 RMK A01 T01650143  RH  086%=      5-min Rain = 0
KCH1 110419Z 17005KT 17/14 A2992 RMK A01 T01650142  RH  086%=      5-min Rain = 0
KCH1 110420Z 17004KT 17/14 A2992 RMK A01 T01650142  RH  086%=      5-min Rain = 0
KCH1 110421Z 16004KT 17/14 A2992 RMK A01 T01650142  RH  086%=      5-min Rain = 0
KCH1 110422Z 17004KT 17/14 A2992 RMK A01 T01650142  RH  086%=      5-min Rain = 0
KCH1 110423Z 16004KT 17/14 A2992 RMK A01 T01650142  RH  086%=      5-min Rain = 0
KCH1 110424Z 16005KT 17/14 A2992 RMK A01 T01650142  RH  086%=      5-min Rain = 0
KCH1 110425Z 16005KT 16/14 A2992 RMK A01 T01640142  RH  087%=      5-min Rain = 0
KCH1 110426Z 16005KT 16/14 A2992 RMK A01 T01640142  RH  087%=      5-min Rain = 0
KCH1 110427Z 16004KT 16/14 A2992 RMK A01 T01640143  RH  087%=      5-min Rain = 0
KCH1 110428Z 16005KT 17/14 A2992 RMK A01 T01650143  RH  087%=      5-min Rain = 0
KCH1 110429Z 16004KT 17/14 A2992 RMK A01 T01650142  RH  086%=      5-min Rain = 0
KCH1 110430Z 17004KT 17/14 A2992 RMK A01 T01650142  RH  087%=      5-min Rain = 0
KCH1 110431Z 16003KT 16/14 A2992 RMK A01 T01640142  RH  087%=      5-min Rain = 0
KCH1 110432Z 16003KT 16/14 A2992 RMK A01 T01640142  RH  087%=      5-min Rain = 0
KCH1 110433Z 15004KT 16/14 A2992 RMK A01 T01640142  RH  087%=      5-min Rain = 0
KCH1 110434Z 16004KT 16/14 A2992 RMK A01 T01630142  RH  087%=      5-min Rain = 0
KCH1 110435Z 15003KT 16/14 A2992 RMK A01 T01630142  RH  087%=      5-min Rain = 0
KCH1 110436Z 15003KT 16/14 A2992 RMK A01 T01630142  RH  087%=      5-min Rain = 0
KCH1 110437Z 15004KT 16/14 A2992 RMK A01 T01630142  RH  087%=      5-min Rain = 0
KCH1 110438Z 15004KT 16/14 A2992 RMK A01 T01620142  RH  088%=      5-min Rain = 0
KCH1 110439Z 14004KT 16/14 A2992 RMK A01 T01610141  RH  088%=      5-min Rain = 0
KCH1 110440Z 14004KT 16/14 A2992 RMK A01 T01610141  RH  088%=      5-min Rain = 0
KCH1 110441Z 14003KT 16/14 A2992 RMK A01 T01610141  RH  088%=      5-min Rain = 0
KCH1 110442Z 14004KT 16/14 A2992 RMK A01 T01610141  RH  088%=      5-min Rain = 0
KCH1 110443Z 14005KT 16/14 A2992 RMK A01 T01600141  RH  088%=      5-min Rain = 0
KCH1 110444Z 14004KT 16/14 A2992 RMK A01 T01600141  RH  088%=      5-min Rain = 0
KCH1 110445Z 14004KT 16/14 A2992 RMK A01 T01600141  RH  089%=      5-min Rain = 0
KCH1 110446Z 15005KT 16/14 A2992 RMK A01 T01600142  RH  089%=      5-min Rain = 0
KCH1 110447Z 15004KT 16/14 A2992 RMK A01 T01610142  RH  088%=      5-min Rain = 0
KCH1 110448Z 14004KT 16/14 A2992 RMK A01 T01610141  RH  088%=      5-min Rain = 0
KCH1 110449Z 15003KT 16/14 A2992 RMK A01 T01620141  RH  088%=      5-min Rain = 0
KCH1 110450Z 15004KT 16/14 A2992 RMK A01 T01620141  RH  087%=      5-min Rain = 0
KCH1 110451Z 16004KT 16/14 A2992 RMK A01 T01620141  RH  087%=      5-min Rain = 0
KCH1 110452Z 15004KT 16/14 A2992 RMK A01 T01620141  RH  087%=      5-min Rain = 0
KCH1 110453Z 16004KT 16/14 A2992 RMK A01 T01620141  RH  087%=      5-min Rain = 0
KCH1 110454Z 15003KT 16/14 A2992 RMK A01 T01620141  RH  087%=      5-min Rain = 0
KCH1 110455Z 16005KT 16/14 A2992 RMK A01 T01620140  RH  087%=      5-min Rain = 0
KCH1 110456Z 16005KT 16/14 A2992 RMK A01 T01620140  RH  087%=      5-min Rain = 0
KCH1 110457Z 15004KT 16/14 A2992 RMK A01 T01630141  RH  087%=      5-min Rain = 0
KCH1 110458Z 15004KT 16/14 A2992 RMK A01 T01630140  RH  086%=      5-min Rain = 0
KCH1 110459Z 15004KT 16/14 A2992 RMK A01 T01630140  RH  086%=      5-min Rain = 0
KCH1 110500Z 15004KT 16/14 A2992 RMK A01 T01620140  RH  086%=      5-min Rain = 0
KCH1 110501Z 14004KT 16/14 A2992 RMK A01 T01620140  RH  087%=      5-min Rain = 0
KCH1 110502Z 15003KT 16/14 A2992 RMK A01 T01610140  RH  087%=      5-min Rain = 0
KCH1 110503Z 13004KT 16/14 A2992 RMK A01 T01600140  RH  088%=      5-min Rain = 0
KCH1 110504Z 14004KT 16/14 A2992 RMK A01 T01600140  RH  088%=      5-min Rain = 0
KCH1 110505Z 14005KT 16/14 A2992 RMK A01 T01590140  RH  088%=      5-min Rain = 0
KCH1 110506Z 14005KT 16/14 A2992 RMK A01 T01590140  RH  089%=      5-min Rain = 0
KCH1 110507Z 14004KT 16/14 A2992 RMK A01 T01580140  RH  089%=      5-min Rain = 0
KCH1 110508Z 13004KT 16/14 A2992 RMK A01 T01580140  RH  089%=      5-min Rain = 0
KCH1 110509Z 13003KT 16/14 A2992 RMK A01 T01570140  RH  089%=      5-min Rain = 0
KCH1 110510Z 12004KT 16/14 A2992 RMK A01 T01570140  RH  089%=      5-min Rain = 0
KCH1 110511Z 12004KT 16/14 A2992 RMK A01 T01570140  RH  089%=      5-min Rain = 0
KCH1 110512Z 12004KT 16/14 A2992 RMK A01 T01570139  RH  089%=      5-min Rain = 0
KCH1 110513Z 12004KT 16/14 A2992 RMK A01 T01560139  RH  090%=      5-min Rain = 0
KCH1 110514Z 12005KT 16/14 A2992 RMK A01 T01560140  RH  090%=      5-min Rain = 0
KCH1 110515Z 13006KT 16/14 A2992 RMK A01 T01550139  RH  090%=      5-min Rain = 0
KCH1 110516Z 12005KT 16/14 A2992 RMK A01 T01560140  RH  090%=      5-min Rain = 0
KCH1 110517Z 13005KT 16/14 A2992 RMK A01 T01560140  RH  090%=      5-min Rain = 0
KCH1 110518Z 13006KT 16/14 A2992 RMK A01 T01560140  RH  090%=      5-min Rain = 0
KCH1 110519Z 13006KT 16/14 A2992 RMK A01 T01560140  RH  090%=      5-min Rain = 0
KCH1 110520Z 13007KT 16/14 A2992 RMK A01 T01560140  RH  090%=      5-min Rain = 0
KCH1 110521Z 13006KT 16/14 A2992 RMK A01 T01560140  RH  090%=      5-min Rain = 0
KCH1 110522Z 14006KT 16/14 A2992 RMK A01 T01570140  RH  090%=      5-min Rain = 0
KCH1 110523Z 14006KT 16/14 A2992 RMK A01 T01570140  RH  090%=      5-min Rain = 0
KCH1 110524Z 14007KT 16/14 A2992 RMK A01 T01560140  RH  090%=      5-min Rain = 0
KCH1 110525Z 13007KT 16/14 A2992 RMK A01 T01560140  RH  090%=      5-min Rain = 0
KCH1 110526Z 14006KT 16/14 A2992 RMK A01 T01560140  RH  090%=      5-min Rain = 0
KCH1 110527Z 13006KT 16/14 A2992 RMK A01 T01560140  RH  090%=      5-min Rain = 0
KCH1 110528Z 14005KT 16/14 A2992 RMK A01 T01560139  RH  090%=      5-min Rain = 0
KCH1 110529Z 14006KT 16/14 A2992 RMK A01 T01560140  RH  090%=      5-min Rain = 0
KCH1 110530Z 14005KT 16/14 A2992 RMK A01 T01550139  RH  090%=      5-min Rain = 0
KCH1 110531Z 14005KT 16/14 A2992 RMK A01 T01550139  RH  090%=      5-min Rain = 0
KCH1 110532Z 15005KT 16/14 A2992 RMK A01 T01550139  RH  090%=      5-min Rain = 0
KCH1 110533Z 16006KT 15/14 A2992 RMK A01 T01540139  RH  090%=      5-min Rain = 0
KCH1 110534Z 15005KT 15/14 A2992 RMK A01 T01540139  RH  091%=      5-min Rain = 0
KCH1 110535Z 15006KT 15/14 A2992 RMK A01 T01540139  RH  091%=      5-min Rain = 0
KCH1 110536Z 15006KT 15/14 A2992 RMK A01 T01540139  RH  090%=      5-min Rain = 0
KCH1 110537Z 15006KT 16/14 A2992 RMK A01 T01550139  RH  090%=      5-min Rain = 0
KCH1 110538Z 15006KT 15/14 A2992 RMK A01 T01540139  RH  090%=      5-min Rain = 0
KCH1 110539Z 15005KT 15/14 A2992 RMK A01 T01540139  RH  091%=      5-min Rain = 0
KCH1 110540Z 16006KT 15/14 A2992 RMK A01 T01540139  RH  090%=      5-min Rain = 0
KCH1 110541Z 16005KT 15/14 A2992 RMK A01 T01540139  RH  090%=      5-min Rain = 0
KCH1 110542Z 15006KT 15/14 A2992 RMK A01 T01540139  RH  090%=      5-min Rain = 0
KCH1 110543Z 16005KT 15/14 A2991 RMK A01 T01540138  RH  090%=      5-min Rain = 0
KCH1 110544Z 16006KT 15/14 A2991 RMK A01 T01540139  RH  090%=      5-min Rain = 0
KCH1 110545Z 17006KT 15/14 A2991 RMK A01 T01540139  RH  091%=      5-min Rain = 0
KCH1 110546Z 17006KT 15/14 A2991 RMK A01 T01540139  RH  090%=      5-min Rain = 0
KCH1 110547Z 17007KT 16/14 A2991 RMK A01 T01550139  RH  090%=      5-min Rain = 0
KCH1 110548Z 18006KT 16/14 A2991 RMK A01 T01550139  RH  090%=      5-min Rain = 0
KCH1 110549Z 18007KT 16/14 A2991 RMK A01 T01550138  RH  090%=      5-min Rain = 0
KCH1 110550Z 17007KT 16/14 A2991 RMK A01 T01550138  RH  090%=      5-min Rain = 0
KCH1 110551Z 18006KT 16/14 A2991 RMK A01 T01560139  RH  090%=      5-min Rain = 0
KCH1 110552Z 18007KT 16/14 A2991 RMK A01 T01550139  RH  090%=      5-min Rain = 0
KCH1 110553Z 18007KT 16/14 A2991 RMK A01 T01550139  RH  090%=      5-min Rain = 0
KCH1 110554Z 18007KT 16/14 A2991 RMK A01 T01550139  RH  090%=      5-min Rain = 0
KCH1 110555Z 18007KT 16/14 A2991 RMK A01 T01550139  RH  090%=      5-min Rain = 0
KCH1 110556Z 18006KT 16/14 A2991 RMK A01 T01560139  RH  090%=      5-min Rain = 0
KCH1 110557Z 18007KT 16/14 A2991 RMK A01 T01560138  RH  089%=      5-min Rain = 0
KCH1 110558Z 19007KT 16/14 A2991 RMK A01 T01560138  RH  089%=      5-min Rain = 0
KCH1 110559Z 19007KT 16/14 A2991 RMK A01 T01560138  RH  089%=      5-min Rain = 0

Page generated in 0.0709 seconds.